<?xml version="1.0" encoding="UTF-8" standalone="no" ?>
<gpx xmlns="http://www.topografix.com/GPX/1/1" xmlns:xsi="http://www.w3.org/2001/XMLSchema-instance" xsi:schemaLocation="http://www.topografix.com/GPX/1/1 http://www.topografix.com/GPX/1/1/gpx.xsd" version="1.1" creator="VisuGPX - https://www.visugpx.com">
  <metadata>
    <name>Chanaz - Boucle de la Pierre Noire</name>
    <desc><![CDATA[Boucle de la Pierre Noire (point de vue sur le Rhône) à Partir du village de Chanaz.]]></desc>
  </metadata>
  <trk>
    <name><![CDATA[Chanaz Marche à pied]]></name>
    <trkseg>
      <trkpt lat="45.80956" lon="5.78921">
        <ele>221.60000610352</ele>
        <time>2019-06-04T13:55:22.000Z</time>
      </trkpt>
      <trkpt lat="45.80957" lon="5.78918">
        <ele>223.19999694824</ele>
        <time>2019-06-04T13:55:23.000Z</time>
      </trkpt>
      <trkpt lat="45.80956" lon="5.78916">
        <ele>224.39999389648</ele>
        <time>2019-06-04T13:55:24.000Z</time>
      </trkpt>
      <trkpt lat="45.80955" lon="5.78913">
        <ele>225.60000610352</ele>
        <time>2019-06-04T13:55:26.000Z</time>
      </trkpt>
      <trkpt lat="45.80953" lon="5.78912">
        <ele>226.80000305176</ele>
        <time>2019-06-04T13:55:30.000Z</time>
      </trkpt>
      <trkpt lat="45.80949" lon="5.78911">
        <ele>227.19999694824</ele>
        <time>2019-06-04T13:55:35.000Z</time>
      </trkpt>
      <trkpt lat="45.80947" lon="5.7891">
        <ele>228.80000305176</ele>
        <time>2019-06-04T13:55:39.000Z</time>
      </trkpt>
      <trkpt lat="45.80945" lon="5.78909">
        <ele>227.60000610352</ele>
        <time>2019-06-04T13:55:41.000Z</time>
      </trkpt>
      <trkpt lat="45.8094" lon="5.7891">
        <ele>228.60000610352</ele>
        <time>2019-06-04T13:56:00.000Z</time>
      </trkpt>
      <trkpt lat="45.8094" lon="5.78909">
        <ele>227.39999389648</ele>
        <time>2019-06-04T13:56:14.000Z</time>
      </trkpt>
      <trkpt lat="45.80939" lon="5.78909">
        <ele>228.60000610352</ele>
        <time>2019-06-04T13:56:15.000Z</time>
      </trkpt>
      <trkpt lat="45.80938" lon="5.78903">
        <ele>227.39999389648</ele>
        <time>2019-06-04T13:56:23.000Z</time>
      </trkpt>
      <trkpt lat="45.80935" lon="5.78901">
        <ele>226.39999389648</ele>
        <time>2019-06-04T13:56:32.000Z</time>
      </trkpt>
      <trkpt lat="45.80931" lon="5.78913">
        <ele>226.60000610352</ele>
        <time>2019-06-04T13:56:47.000Z</time>
      </trkpt>
      <trkpt lat="45.8093" lon="5.78914">
        <ele>226.60000610352</ele>
        <time>2019-06-04T13:56:55.000Z</time>
      </trkpt>
      <trkpt lat="45.80928" lon="5.78919">
        <ele>226.60000610352</ele>
        <time>2019-06-04T13:57:03.000Z</time>
      </trkpt>
      <trkpt lat="45.80924" lon="5.78943">
        <ele>225.60000610352</ele>
        <time>2019-06-04T13:57:27.000Z</time>
      </trkpt>
      <trkpt lat="45.80924" lon="5.78945">
        <ele>225.39999389648</ele>
        <time>2019-06-04T13:57:29.000Z</time>
      </trkpt>
      <trkpt lat="45.80925" lon="5.78949">
        <ele>225.19999694824</ele>
        <time>2019-06-04T13:57:31.000Z</time>
      </trkpt>
      <trkpt lat="45.80922" lon="5.78975">
        <ele>225.39999389648</ele>
        <time>2019-06-04T13:57:43.000Z</time>
      </trkpt>
      <trkpt lat="45.80922" lon="5.78979">
        <ele>225.80000305176</ele>
        <time>2019-06-04T13:57:46.000Z</time>
      </trkpt>
      <trkpt lat="45.80917" lon="5.78983">
        <ele>225.80000305176</ele>
        <time>2019-06-04T13:57:52.000Z</time>
      </trkpt>
      <trkpt lat="45.80916" lon="5.78987">
        <ele>225.80000305176</ele>
        <time>2019-06-04T13:57:55.000Z</time>
      </trkpt>
      <trkpt lat="45.80917" lon="5.78994">
        <ele>225.80000305176</ele>
        <time>2019-06-04T13:58:00.000Z</time>
      </trkpt>
      <trkpt lat="45.80913" lon="5.78999">
        <ele>225.39999389648</ele>
        <time>2019-06-04T13:58:06.000Z</time>
      </trkpt>
      <trkpt lat="45.80911" lon="5.79">
        <ele>225.39999389648</ele>
        <time>2019-06-04T13:58:07.000Z</time>
      </trkpt>
      <trkpt lat="45.80908" lon="5.79002">
        <ele>225.60000610352</ele>
        <time>2019-06-04T13:58:10.000Z</time>
      </trkpt>
      <trkpt lat="45.80899" lon="5.79025">
        <ele>226</ele>
        <time>2019-06-04T13:58:31.000Z</time>
      </trkpt>
      <trkpt lat="45.80892" lon="5.79048">
        <ele>225.39999389648</ele>
        <time>2019-06-04T13:58:52.000Z</time>
      </trkpt>
      <trkpt lat="45.80887" lon="5.79071">
        <ele>225.39999389648</ele>
        <time>2019-06-04T13:59:14.000Z</time>
      </trkpt>
      <trkpt lat="45.80877" lon="5.79094">
        <ele>226.19999694824</ele>
        <time>2019-06-04T13:59:34.000Z</time>
      </trkpt>
      <trkpt lat="45.80874" lon="5.79108">
        <ele>226.19999694824</ele>
        <time>2019-06-04T13:59:46.000Z</time>
      </trkpt>
      <trkpt lat="45.8087" lon="5.79113">
        <ele>226</ele>
        <time>2019-06-04T13:59:52.000Z</time>
      </trkpt>
      <trkpt lat="45.80859" lon="5.7911">
        <ele>226</ele>
        <time>2019-06-04T14:00:05.000Z</time>
      </trkpt>
      <trkpt lat="45.8085" lon="5.79113">
        <ele>226.60000610352</ele>
        <time>2019-06-04T14:00:19.000Z</time>
      </trkpt>
      <trkpt lat="45.80846" lon="5.79116">
        <ele>226.39999389648</ele>
        <time>2019-06-04T14:00:40.000Z</time>
      </trkpt>
      <trkpt lat="45.80843" lon="5.79128">
        <ele>226.80000305176</ele>
        <time>2019-06-04T14:00:56.000Z</time>
      </trkpt>
      <trkpt lat="45.80837" lon="5.79143">
        <ele>227.60000610352</ele>
        <time>2019-06-04T14:01:22.000Z</time>
      </trkpt>
      <trkpt lat="45.80832" lon="5.79143">
        <ele>227.80000305176</ele>
        <time>2019-06-04T14:01:32.000Z</time>
      </trkpt>
      <trkpt lat="45.80837" lon="5.79147">
        <ele>228.19999694824</ele>
        <time>2019-06-04T14:01:40.000Z</time>
      </trkpt>
      <trkpt lat="45.80838" lon="5.79133">
        <ele>228.39999389648</ele>
        <time>2019-06-04T14:01:50.000Z</time>
      </trkpt>
      <trkpt lat="45.80854" lon="5.7914">
        <ele>227.80000305176</ele>
        <time>2019-06-04T14:02:05.000Z</time>
      </trkpt>
      <trkpt lat="45.80844" lon="5.79133">
        <ele>228.39999389648</ele>
        <time>2019-06-04T14:02:32.000Z</time>
      </trkpt>
      <trkpt lat="45.8084" lon="5.79137">
        <ele>227.80000305176</ele>
        <time>2019-06-04T14:02:40.000Z</time>
      </trkpt>
      <trkpt lat="45.80838" lon="5.79139">
        <ele>229.19999694824</ele>
        <time>2019-06-04T14:02:42.000Z</time>
      </trkpt>
      <trkpt lat="45.80838" lon="5.79139">
        <ele>227.19999694824</ele>
        <time>2019-06-04T14:02:43.000Z</time>
      </trkpt>
      <trkpt lat="45.80837" lon="5.79139">
        <ele>228.39999389648</ele>
        <time>2019-06-04T14:02:45.000Z</time>
      </trkpt>
      <trkpt lat="45.80833" lon="5.79134">
        <ele>230</ele>
        <time>2019-06-04T14:02:51.000Z</time>
      </trkpt>
      <trkpt lat="45.80833" lon="5.79133">
        <ele>231</ele>
        <time>2019-06-04T14:02:52.000Z</time>
      </trkpt>
      <trkpt lat="45.80827" lon="5.79127">
        <ele>230.60000610352</ele>
        <time>2019-06-04T14:03:01.000Z</time>
      </trkpt>
      <trkpt lat="45.80825" lon="5.79125">
        <ele>231.60000610352</ele>
        <time>2019-06-04T14:03:05.000Z</time>
      </trkpt>
      <trkpt lat="45.80823" lon="5.79125">
        <ele>231.19999694824</ele>
        <time>2019-06-04T14:03:08.000Z</time>
      </trkpt>
      <trkpt lat="45.80822" lon="5.79124">
        <ele>231.39999389648</ele>
        <time>2019-06-04T14:03:09.000Z</time>
      </trkpt>
      <trkpt lat="45.8082" lon="5.79123">
        <ele>231.60000610352</ele>
        <time>2019-06-04T14:03:11.000Z</time>
      </trkpt>
      <trkpt lat="45.80815" lon="5.79119">
        <ele>232.19999694824</ele>
        <time>2019-06-04T14:03:20.000Z</time>
      </trkpt>
      <trkpt lat="45.8081" lon="5.79114">
        <ele>232.39999389648</ele>
        <time>2019-06-04T14:03:28.000Z</time>
      </trkpt>
      <trkpt lat="45.80808" lon="5.79114">
        <ele>232.60000610352</ele>
        <time>2019-06-04T14:03:30.000Z</time>
      </trkpt>
      <trkpt lat="45.80809" lon="5.79113">
        <ele>233</ele>
        <time>2019-06-04T14:03:32.000Z</time>
      </trkpt>
      <trkpt lat="45.80809" lon="5.79113">
        <ele>233.19999694824</ele>
        <time>2019-06-04T14:03:34.000Z</time>
      </trkpt>
      <trkpt lat="45.80809" lon="5.79113">
        <ele>233.60000610352</ele>
        <time>2019-06-04T14:03:36.000Z</time>
      </trkpt>
      <trkpt lat="45.80807" lon="5.79111">
        <ele>233.80000305176</ele>
        <time>2019-06-04T14:03:41.000Z</time>
      </trkpt>
      <trkpt lat="45.80804" lon="5.79109">
        <ele>233.80000305176</ele>
        <time>2019-06-04T14:03:45.000Z</time>
      </trkpt>
      <trkpt lat="45.80803" lon="5.79108">
        <ele>233.80000305176</ele>
        <time>2019-06-04T14:03:46.000Z</time>
      </trkpt>
      <trkpt lat="45.80802" lon="5.79108">
        <ele>234</ele>
        <time>2019-06-04T14:03:47.000Z</time>
      </trkpt>
      <trkpt lat="45.80801" lon="5.79106">
        <ele>234</ele>
        <time>2019-06-04T14:03:49.000Z</time>
      </trkpt>
      <trkpt lat="45.80801" lon="5.79106">
        <ele>234.19999694824</ele>
        <time>2019-06-04T14:03:50.000Z</time>
      </trkpt>
      <trkpt lat="45.80799" lon="5.79105">
        <ele>234.39999389648</ele>
        <time>2019-06-04T14:03:52.000Z</time>
      </trkpt>
      <trkpt lat="45.80797" lon="5.79102">
        <ele>234.80000305176</ele>
        <time>2019-06-04T14:03:55.000Z</time>
      </trkpt>
      <trkpt lat="45.80795" lon="5.791">
        <ele>235.39999389648</ele>
        <time>2019-06-04T14:03:58.000Z</time>
      </trkpt>
      <trkpt lat="45.80793" lon="5.79098">
        <ele>235.80000305176</ele>
        <time>2019-06-04T14:04:02.000Z</time>
      </trkpt>
      <trkpt lat="45.80792" lon="5.79098">
        <ele>236</ele>
        <time>2019-06-04T14:04:03.000Z</time>
      </trkpt>
      <trkpt lat="45.80791" lon="5.79096">
        <ele>236.60000610352</ele>
        <time>2019-06-04T14:04:06.000Z</time>
      </trkpt>
      <trkpt lat="45.80783" lon="5.79092">
        <ele>237.60000610352</ele>
        <time>2019-06-04T14:04:17.000Z</time>
      </trkpt>
      <trkpt lat="45.8078" lon="5.79095">
        <ele>238.60000610352</ele>
        <time>2019-06-04T14:04:25.000Z</time>
      </trkpt>
      <trkpt lat="45.80779" lon="5.79096">
        <ele>239.60000610352</ele>
        <time>2019-06-04T14:04:29.000Z</time>
      </trkpt>
      <trkpt lat="45.8077" lon="5.79101">
        <ele>240.80000305176</ele>
        <time>2019-06-04T14:04:43.000Z</time>
      </trkpt>
      <trkpt lat="45.80766" lon="5.79103">
        <ele>241.80000305176</ele>
        <time>2019-06-04T14:04:52.000Z</time>
      </trkpt>
      <trkpt lat="45.8076" lon="5.79103">
        <ele>242.80000305176</ele>
        <time>2019-06-04T14:05:02.000Z</time>
      </trkpt>
      <trkpt lat="45.80755" lon="5.79101">
        <ele>243.80000305176</ele>
        <time>2019-06-04T14:05:09.000Z</time>
      </trkpt>
      <trkpt lat="45.8075" lon="5.79105">
        <ele>244.80000305176</ele>
        <time>2019-06-04T14:05:17.000Z</time>
      </trkpt>
      <trkpt lat="45.80746" lon="5.79104">
        <ele>245.80000305176</ele>
        <time>2019-06-04T14:05:23.000Z</time>
      </trkpt>
      <trkpt lat="45.80741" lon="5.79103">
        <ele>247</ele>
        <time>2019-06-04T14:05:29.000Z</time>
      </trkpt>
      <trkpt lat="45.80736" lon="5.79108">
        <ele>248.19999694824</ele>
        <time>2019-06-04T14:05:38.000Z</time>
      </trkpt>
      <trkpt lat="45.80739" lon="5.79114">
        <ele>249.19999694824</ele>
        <time>2019-06-04T14:05:51.000Z</time>
      </trkpt>
      <trkpt lat="45.80737" lon="5.79103">
        <ele>248.80000305176</ele>
        <time>2019-06-04T14:06:17.000Z</time>
      </trkpt>
      <trkpt lat="45.80736" lon="5.79099">
        <ele>249</ele>
        <time>2019-06-04T14:06:39.000Z</time>
      </trkpt>
      <trkpt lat="45.80736" lon="5.79099">
        <ele>249</ele>
        <time>2019-06-04T14:06:40.000Z</time>
      </trkpt>
      <trkpt lat="45.80734" lon="5.79097">
        <ele>248.80000305176</ele>
        <time>2019-06-04T14:06:49.000Z</time>
      </trkpt>
      <trkpt lat="45.80733" lon="5.79101">
        <ele>249.19999694824</ele>
        <time>2019-06-04T14:06:55.000Z</time>
      </trkpt>
      <trkpt lat="45.80732" lon="5.79108">
        <ele>250.39999389648</ele>
        <time>2019-06-04T14:07:03.000Z</time>
      </trkpt>
      <trkpt lat="45.80728" lon="5.79111">
        <ele>251.39999389648</ele>
        <time>2019-06-04T14:07:09.000Z</time>
      </trkpt>
      <trkpt lat="45.80728" lon="5.79112">
        <ele>251.39999389648</ele>
        <time>2019-06-04T14:07:10.000Z</time>
      </trkpt>
      <trkpt lat="45.80727" lon="5.79114">
        <ele>251.80000305176</ele>
        <time>2019-06-04T14:07:14.000Z</time>
      </trkpt>
      <trkpt lat="45.80726" lon="5.79115">
        <ele>251.80000305176</ele>
        <time>2019-06-04T14:07:15.000Z</time>
      </trkpt>
      <trkpt lat="45.80726" lon="5.79116">
        <ele>251.80000305176</ele>
        <time>2019-06-04T14:07:16.000Z</time>
      </trkpt>
      <trkpt lat="45.80724" lon="5.79117">
        <ele>252.19999694824</ele>
        <time>2019-06-04T14:07:20.000Z</time>
      </trkpt>
      <trkpt lat="45.80722" lon="5.79116">
        <ele>252.39999389648</ele>
        <time>2019-06-04T14:07:23.000Z</time>
      </trkpt>
      <trkpt lat="45.80717" lon="5.79116">
        <ele>253.19999694824</ele>
        <time>2019-06-04T14:07:31.000Z</time>
      </trkpt>
      <trkpt lat="45.80717" lon="5.79116">
        <ele>253.39999389648</ele>
        <time>2019-06-04T14:07:33.000Z</time>
      </trkpt>
      <trkpt lat="45.80718" lon="5.79117">
        <ele>253.80000305176</ele>
        <time>2019-06-04T14:07:35.000Z</time>
      </trkpt>
      <trkpt lat="45.8072" lon="5.79118">
        <ele>254.19999694824</ele>
        <time>2019-06-04T14:07:43.000Z</time>
      </trkpt>
      <trkpt lat="45.80719" lon="5.79117">
        <ele>254.39999389648</ele>
        <time>2019-06-04T14:07:51.000Z</time>
      </trkpt>
      <trkpt lat="45.80723" lon="5.79114">
        <ele>254.60000610352</ele>
        <time>2019-06-04T14:08:10.000Z</time>
      </trkpt>
      <trkpt lat="45.8073" lon="5.79113">
        <ele>254.39999389648</ele>
        <time>2019-06-04T14:08:14.000Z</time>
      </trkpt>
      <trkpt lat="45.80722" lon="5.79111">
        <ele>254.80000305176</ele>
        <time>2019-06-04T14:08:30.000Z</time>
      </trkpt>
      <trkpt lat="45.80719" lon="5.79111">
        <ele>255.19999694824</ele>
        <time>2019-06-04T14:08:33.000Z</time>
      </trkpt>
      <trkpt lat="45.80717" lon="5.79112">
        <ele>255.60000610352</ele>
        <time>2019-06-04T14:08:35.000Z</time>
      </trkpt>
      <trkpt lat="45.80716" lon="5.79114">
        <ele>255.80000305176</ele>
        <time>2019-06-04T14:08:36.000Z</time>
      </trkpt>
      <trkpt lat="45.80714" lon="5.79115">
        <ele>256.20001220703</ele>
        <time>2019-06-04T14:08:39.000Z</time>
      </trkpt>
      <trkpt lat="45.80714" lon="5.79116">
        <ele>256.39999389648</ele>
        <time>2019-06-04T14:08:40.000Z</time>
      </trkpt>
      <trkpt lat="45.80713" lon="5.79117">
        <ele>256.79998779297</ele>
        <time>2019-06-04T14:08:43.000Z</time>
      </trkpt>
      <trkpt lat="45.80712" lon="5.79117">
        <ele>256.79998779297</ele>
        <time>2019-06-04T14:08:44.000Z</time>
      </trkpt>
      <trkpt lat="45.80712" lon="5.79117">
        <ele>257</ele>
        <time>2019-06-04T14:08:45.000Z</time>
      </trkpt>
      <trkpt lat="45.80711" lon="5.79118">
        <ele>257</ele>
        <time>2019-06-04T14:08:46.000Z</time>
      </trkpt>
      <trkpt lat="45.80707" lon="5.79122">
        <ele>257.39999389648</ele>
        <time>2019-06-04T14:08:50.000Z</time>
      </trkpt>
      <trkpt lat="45.80706" lon="5.79123">
        <ele>257.79998779297</ele>
        <time>2019-06-04T14:08:52.000Z</time>
      </trkpt>
      <trkpt lat="45.80703" lon="5.79127">
        <ele>258.60000610352</ele>
        <time>2019-06-04T14:08:57.000Z</time>
      </trkpt>
      <trkpt lat="45.807" lon="5.79127">
        <ele>258.79998779297</ele>
        <time>2019-06-04T14:09:02.000Z</time>
      </trkpt>
      <trkpt lat="45.80699" lon="5.79129">
        <ele>259.20001220703</ele>
        <time>2019-06-04T14:09:05.000Z</time>
      </trkpt>
      <trkpt lat="45.80697" lon="5.7913">
        <ele>259.79998779297</ele>
        <time>2019-06-04T14:09:11.000Z</time>
      </trkpt>
      <trkpt lat="45.80696" lon="5.79129">
        <ele>260</ele>
        <time>2019-06-04T14:09:13.000Z</time>
      </trkpt>
      <trkpt lat="45.80691" lon="5.79126">
        <ele>260.79998779297</ele>
        <time>2019-06-04T14:09:24.000Z</time>
      </trkpt>
      <trkpt lat="45.80691" lon="5.79125">
        <ele>261.20001220703</ele>
        <time>2019-06-04T14:09:26.000Z</time>
      </trkpt>
      <trkpt lat="45.80689" lon="5.79122">
        <ele>261.79998779297</ele>
        <time>2019-06-04T14:09:35.000Z</time>
      </trkpt>
      <trkpt lat="45.80686" lon="5.79122">
        <ele>262.20001220703</ele>
        <time>2019-06-04T14:09:38.000Z</time>
      </trkpt>
      <trkpt lat="45.80682" lon="5.79123">
        <ele>262.79998779297</ele>
        <time>2019-06-04T14:09:44.000Z</time>
      </trkpt>
      <trkpt lat="45.80682" lon="5.79123">
        <ele>262.79998779297</ele>
        <time>2019-06-04T14:09:45.000Z</time>
      </trkpt>
      <trkpt lat="45.80681" lon="5.79124">
        <ele>263</ele>
        <time>2019-06-04T14:09:46.000Z</time>
      </trkpt>
      <trkpt lat="45.8068" lon="5.79124">
        <ele>263</ele>
        <time>2019-06-04T14:09:47.000Z</time>
      </trkpt>
      <trkpt lat="45.8068" lon="5.79125">
        <ele>263</ele>
        <time>2019-06-04T14:09:48.000Z</time>
      </trkpt>
      <trkpt lat="45.80679" lon="5.79125">
        <ele>263.20001220703</ele>
        <time>2019-06-04T14:09:49.000Z</time>
      </trkpt>
      <trkpt lat="45.80679" lon="5.79126">
        <ele>263.39999389648</ele>
        <time>2019-06-04T14:09:50.000Z</time>
      </trkpt>
      <trkpt lat="45.80679" lon="5.79126">
        <ele>263.79998779297</ele>
        <time>2019-06-04T14:09:51.000Z</time>
      </trkpt>
      <trkpt lat="45.80678" lon="5.79126">
        <ele>264</ele>
        <time>2019-06-04T14:09:52.000Z</time>
      </trkpt>
      <trkpt lat="45.80678" lon="5.79126">
        <ele>264.20001220703</ele>
        <time>2019-06-04T14:09:53.000Z</time>
      </trkpt>
      <trkpt lat="45.80676" lon="5.79126">
        <ele>264.60000610352</ele>
        <time>2019-06-04T14:09:57.000Z</time>
      </trkpt>
      <trkpt lat="45.80676" lon="5.79128">
        <ele>265.20001220703</ele>
        <time>2019-06-04T14:10:02.000Z</time>
      </trkpt>
      <trkpt lat="45.80675" lon="5.79128">
        <ele>265.60000610352</ele>
        <time>2019-06-04T14:10:04.000Z</time>
      </trkpt>
      <trkpt lat="45.80675" lon="5.79129">
        <ele>265.60000610352</ele>
        <time>2019-06-04T14:10:05.000Z</time>
      </trkpt>
      <trkpt lat="45.80674" lon="5.79128">
        <ele>265.79998779297</ele>
        <time>2019-06-04T14:10:07.000Z</time>
      </trkpt>
      <trkpt lat="45.80674" lon="5.79128">
        <ele>265.79998779297</ele>
        <time>2019-06-04T14:10:08.000Z</time>
      </trkpt>
      <trkpt lat="45.80673" lon="5.79128">
        <ele>266.20001220703</ele>
        <time>2019-06-04T14:10:10.000Z</time>
      </trkpt>
      <trkpt lat="45.80672" lon="5.79127">
        <ele>266.39999389648</ele>
        <time>2019-06-04T14:10:12.000Z</time>
      </trkpt>
      <trkpt lat="45.80671" lon="5.79127">
        <ele>266.39999389648</ele>
        <time>2019-06-04T14:10:13.000Z</time>
      </trkpt>
      <trkpt lat="45.80671" lon="5.79127">
        <ele>266.39999389648</ele>
        <time>2019-06-04T14:10:14.000Z</time>
      </trkpt>
      <trkpt lat="45.8067" lon="5.79127">
        <ele>266.60000610352</ele>
        <time>2019-06-04T14:10:15.000Z</time>
      </trkpt>
      <trkpt lat="45.8067" lon="5.79127">
        <ele>266.79998779297</ele>
        <time>2019-06-04T14:10:16.000Z</time>
      </trkpt>
      <trkpt lat="45.8067" lon="5.79128">
        <ele>267</ele>
        <time>2019-06-04T14:10:18.000Z</time>
      </trkpt>
      <trkpt lat="45.80669" lon="5.79128">
        <ele>267</ele>
        <time>2019-06-04T14:10:19.000Z</time>
      </trkpt>
      <trkpt lat="45.80668" lon="5.79129">
        <ele>267.39999389648</ele>
        <time>2019-06-04T14:10:23.000Z</time>
      </trkpt>
      <trkpt lat="45.80663" lon="5.79129">
        <ele>268.39999389648</ele>
        <time>2019-06-04T14:10:32.000Z</time>
      </trkpt>
      <trkpt lat="45.80661" lon="5.79128">
        <ele>268.79998779297</ele>
        <time>2019-06-04T14:10:36.000Z</time>
      </trkpt>
      <trkpt lat="45.80659" lon="5.79127">
        <ele>269.60000610352</ele>
        <time>2019-06-04T14:10:40.000Z</time>
      </trkpt>
      <trkpt lat="45.80653" lon="5.79127">
        <ele>270.79998779297</ele>
        <time>2019-06-04T14:10:50.000Z</time>
      </trkpt>
      <trkpt lat="45.80651" lon="5.79126">
        <ele>271</ele>
        <time>2019-06-04T14:10:52.000Z</time>
      </trkpt>
      <trkpt lat="45.80649" lon="5.79126">
        <ele>271.39999389648</ele>
        <time>2019-06-04T14:10:55.000Z</time>
      </trkpt>
      <trkpt lat="45.80649" lon="5.79126">
        <ele>271.60000610352</ele>
        <time>2019-06-04T14:10:56.000Z</time>
      </trkpt>
      <trkpt lat="45.80648" lon="5.79126">
        <ele>271.79998779297</ele>
        <time>2019-06-04T14:10:57.000Z</time>
      </trkpt>
      <trkpt lat="45.80646" lon="5.79126">
        <ele>271.79998779297</ele>
        <time>2019-06-04T14:10:59.000Z</time>
      </trkpt>
      <trkpt lat="45.80645" lon="5.79126">
        <ele>272</ele>
        <time>2019-06-04T14:11:00.000Z</time>
      </trkpt>
      <trkpt lat="45.80641" lon="5.79126">
        <ele>272.79998779297</ele>
        <time>2019-06-04T14:11:05.000Z</time>
      </trkpt>
      <trkpt lat="45.80638" lon="5.79126">
        <ele>274</ele>
        <time>2019-06-04T14:11:14.000Z</time>
      </trkpt>
      <trkpt lat="45.80635" lon="5.79125">
        <ele>275</ele>
        <time>2019-06-04T14:11:20.000Z</time>
      </trkpt>
      <trkpt lat="45.80631" lon="5.79121">
        <ele>276</ele>
        <time>2019-06-04T14:11:27.000Z</time>
      </trkpt>
      <trkpt lat="45.80627" lon="5.79121">
        <ele>277.20001220703</ele>
        <time>2019-06-04T14:11:32.000Z</time>
      </trkpt>
      <trkpt lat="45.80626" lon="5.79121">
        <ele>277.39999389648</ele>
        <time>2019-06-04T14:11:34.000Z</time>
      </trkpt>
      <trkpt lat="45.80626" lon="5.7912">
        <ele>278.39999389648</ele>
        <time>2019-06-04T14:11:39.000Z</time>
      </trkpt>
      <trkpt lat="45.80621" lon="5.79126">
        <ele>279.20001220703</ele>
        <time>2019-06-04T14:11:57.000Z</time>
      </trkpt>
      <trkpt lat="45.80618" lon="5.79126">
        <ele>279.39999389648</ele>
        <time>2019-06-04T14:12:02.000Z</time>
      </trkpt>
      <trkpt lat="45.80618" lon="5.79125">
        <ele>279.39999389648</ele>
        <time>2019-06-04T14:12:03.000Z</time>
      </trkpt>
      <trkpt lat="45.80615" lon="5.79126">
        <ele>279.79998779297</ele>
        <time>2019-06-04T14:12:10.000Z</time>
      </trkpt>
      <trkpt lat="45.80609" lon="5.79127">
        <ele>280.39999389648</ele>
        <time>2019-06-04T14:12:21.000Z</time>
      </trkpt>
      <trkpt lat="45.80606" lon="5.79128">
        <ele>280.79998779297</ele>
        <time>2019-06-04T14:12:29.000Z</time>
      </trkpt>
      <trkpt lat="45.80594" lon="5.79135">
        <ele>281.60000610352</ele>
        <time>2019-06-04T14:12:47.000Z</time>
      </trkpt>
      <trkpt lat="45.8059" lon="5.79135">
        <ele>282</ele>
        <time>2019-06-04T14:12:52.000Z</time>
      </trkpt>
      <trkpt lat="45.80588" lon="5.79135">
        <ele>282.39999389648</ele>
        <time>2019-06-04T14:12:55.000Z</time>
      </trkpt>
      <trkpt lat="45.80587" lon="5.79135">
        <ele>282.60000610352</ele>
        <time>2019-06-04T14:12:56.000Z</time>
      </trkpt>
      <trkpt lat="45.80583" lon="5.79141">
        <ele>283.60000610352</ele>
        <time>2019-06-04T14:13:07.000Z</time>
      </trkpt>
      <trkpt lat="45.80579" lon="5.79151">
        <ele>284</ele>
        <time>2019-06-04T14:13:32.000Z</time>
      </trkpt>
      <trkpt lat="45.80581" lon="5.7917">
        <ele>284.60000610352</ele>
        <time>2019-06-04T14:13:50.000Z</time>
      </trkpt>
      <trkpt lat="45.80589" lon="5.79194">
        <ele>285.39999389648</ele>
        <time>2019-06-04T14:14:11.000Z</time>
      </trkpt>
      <trkpt lat="45.80589" lon="5.79197">
        <ele>285.60000610352</ele>
        <time>2019-06-04T14:14:13.000Z</time>
      </trkpt>
      <trkpt lat="45.8059" lon="5.79208">
        <ele>285.60000610352</ele>
        <time>2019-06-04T14:14:22.000Z</time>
      </trkpt>
      <trkpt lat="45.80589" lon="5.79234">
        <ele>286</ele>
        <time>2019-06-04T14:14:42.000Z</time>
      </trkpt>
      <trkpt lat="45.8059" lon="5.79239">
        <ele>286</ele>
        <time>2019-06-04T14:14:46.000Z</time>
      </trkpt>
      <trkpt lat="45.8059" lon="5.79244">
        <ele>286</ele>
        <time>2019-06-04T14:14:49.000Z</time>
      </trkpt>
      <trkpt lat="45.8059" lon="5.79264">
        <ele>286.60000610352</ele>
        <time>2019-06-04T14:15:06.000Z</time>
      </trkpt>
      <trkpt lat="45.80588" lon="5.79273">
        <ele>287.39999389648</ele>
        <time>2019-06-04T14:15:14.000Z</time>
      </trkpt>
      <trkpt lat="45.80587" lon="5.79276">
        <ele>287.79998779297</ele>
        <time>2019-06-04T14:15:17.000Z</time>
      </trkpt>
      <trkpt lat="45.80586" lon="5.79284">
        <ele>288</ele>
        <time>2019-06-04T14:15:23.000Z</time>
      </trkpt>
      <trkpt lat="45.80585" lon="5.79294">
        <ele>288.39999389648</ele>
        <time>2019-06-04T14:15:30.000Z</time>
      </trkpt>
      <trkpt lat="45.80584" lon="5.79301">
        <ele>288.60000610352</ele>
        <time>2019-06-04T14:15:35.000Z</time>
      </trkpt>
      <trkpt lat="45.80582" lon="5.79304">
        <ele>288.79998779297</ele>
        <time>2019-06-04T14:15:39.000Z</time>
      </trkpt>
      <trkpt lat="45.80582" lon="5.79313">
        <ele>289.79998779297</ele>
        <time>2019-06-04T14:15:49.000Z</time>
      </trkpt>
      <trkpt lat="45.80582" lon="5.79314">
        <ele>290</ele>
        <time>2019-06-04T14:15:50.000Z</time>
      </trkpt>
      <trkpt lat="45.80582" lon="5.79314">
        <ele>290.20001220703</ele>
        <time>2019-06-04T14:15:52.000Z</time>
      </trkpt>
      <trkpt lat="45.80581" lon="5.79318">
        <ele>291</ele>
        <time>2019-06-04T14:16:00.000Z</time>
      </trkpt>
      <trkpt lat="45.80581" lon="5.79333">
        <ele>292</ele>
        <time>2019-06-04T14:16:16.000Z</time>
      </trkpt>
      <trkpt lat="45.80582" lon="5.79334">
        <ele>292.20001220703</ele>
        <time>2019-06-04T14:16:18.000Z</time>
      </trkpt>
      <trkpt lat="45.80582" lon="5.79334">
        <ele>292.20001220703</ele>
        <time>2019-06-04T14:16:19.000Z</time>
      </trkpt>
      <trkpt lat="45.80583" lon="5.79335">
        <ele>292.39999389648</ele>
        <time>2019-06-04T14:16:20.000Z</time>
      </trkpt>
      <trkpt lat="45.80585" lon="5.7934">
        <ele>292.60000610352</ele>
        <time>2019-06-04T14:16:27.000Z</time>
      </trkpt>
      <trkpt lat="45.80595" lon="5.79353">
        <ele>293</ele>
        <time>2019-06-04T14:16:41.000Z</time>
      </trkpt>
      <trkpt lat="45.80607" lon="5.79372">
        <ele>293.20001220703</ele>
        <time>2019-06-04T14:16:58.000Z</time>
      </trkpt>
      <trkpt lat="45.80612" lon="5.79395">
        <ele>294</ele>
        <time>2019-06-04T14:17:19.000Z</time>
      </trkpt>
      <trkpt lat="45.80612" lon="5.79397">
        <ele>294.39999389648</ele>
        <time>2019-06-04T14:17:21.000Z</time>
      </trkpt>
      <trkpt lat="45.80612" lon="5.79401">
        <ele>294.60000610352</ele>
        <time>2019-06-04T14:17:24.000Z</time>
      </trkpt>
      <trkpt lat="45.80612" lon="5.79402">
        <ele>294.60000610352</ele>
        <time>2019-06-04T14:17:25.000Z</time>
      </trkpt>
      <trkpt lat="45.80613" lon="5.7941">
        <ele>295.20001220703</ele>
        <time>2019-06-04T14:17:32.000Z</time>
      </trkpt>
      <trkpt lat="45.80614" lon="5.79418">
        <ele>296</ele>
        <time>2019-06-04T14:17:38.000Z</time>
      </trkpt>
      <trkpt lat="45.80614" lon="5.79422">
        <ele>296.20001220703</ele>
        <time>2019-06-04T14:17:42.000Z</time>
      </trkpt>
      <trkpt lat="45.80615" lon="5.79424">
        <ele>297.39999389648</ele>
        <time>2019-06-04T14:17:52.000Z</time>
      </trkpt>
      <trkpt lat="45.80615" lon="5.79435">
        <ele>298</ele>
        <time>2019-06-04T14:18:02.000Z</time>
      </trkpt>
      <trkpt lat="45.80615" lon="5.79439">
        <ele>298.20001220703</ele>
        <time>2019-06-04T14:18:05.000Z</time>
      </trkpt>
      <trkpt lat="45.80615" lon="5.79441">
        <ele>298.20001220703</ele>
        <time>2019-06-04T14:18:07.000Z</time>
      </trkpt>
      <trkpt lat="45.80615" lon="5.79444">
        <ele>298.39999389648</ele>
        <time>2019-06-04T14:18:09.000Z</time>
      </trkpt>
      <trkpt lat="45.80616" lon="5.79454">
        <ele>299.39999389648</ele>
        <time>2019-06-04T14:18:18.000Z</time>
      </trkpt>
      <trkpt lat="45.80617" lon="5.79463">
        <ele>300.20001220703</ele>
        <time>2019-06-04T14:18:25.000Z</time>
      </trkpt>
      <trkpt lat="45.80617" lon="5.79465">
        <ele>300.39999389648</ele>
        <time>2019-06-04T14:18:27.000Z</time>
      </trkpt>
      <trkpt lat="45.80618" lon="5.79483">
        <ele>301.60000610352</ele>
        <time>2019-06-04T14:18:41.000Z</time>
      </trkpt>
      <trkpt lat="45.80618" lon="5.79491">
        <ele>302.60000610352</ele>
        <time>2019-06-04T14:18:48.000Z</time>
      </trkpt>
      <trkpt lat="45.80618" lon="5.79499">
        <ele>303.79998779297</ele>
        <time>2019-06-04T14:18:56.000Z</time>
      </trkpt>
      <trkpt lat="45.80617" lon="5.7951">
        <ele>305</ele>
        <time>2019-06-04T14:19:15.000Z</time>
      </trkpt>
      <trkpt lat="45.80623" lon="5.79508">
        <ele>305</ele>
        <time>2019-06-04T14:19:28.000Z</time>
      </trkpt>
      <trkpt lat="45.80624" lon="5.79514">
        <ele>305.39999389648</ele>
        <time>2019-06-04T14:19:38.000Z</time>
      </trkpt>
      <trkpt lat="45.80628" lon="5.79525">
        <ele>306</ele>
        <time>2019-06-04T14:19:49.000Z</time>
      </trkpt>
      <trkpt lat="45.80631" lon="5.79531">
        <ele>306.20001220703</ele>
        <time>2019-06-04T14:19:55.000Z</time>
      </trkpt>
      <trkpt lat="45.80633" lon="5.79533">
        <ele>306.39999389648</ele>
        <time>2019-06-04T14:19:58.000Z</time>
      </trkpt>
      <trkpt lat="45.80636" lon="5.79542">
        <ele>307</ele>
        <time>2019-06-04T14:20:08.000Z</time>
      </trkpt>
      <trkpt lat="45.80639" lon="5.79552">
        <ele>308</ele>
        <time>2019-06-04T14:20:19.000Z</time>
      </trkpt>
      <trkpt lat="45.80642" lon="5.79559">
        <ele>309</ele>
        <time>2019-06-04T14:20:30.000Z</time>
      </trkpt>
      <trkpt lat="45.80648" lon="5.79571">
        <ele>310</ele>
        <time>2019-06-04T14:20:46.000Z</time>
      </trkpt>
      <trkpt lat="45.80657" lon="5.7958">
        <ele>309.79998779297</ele>
        <time>2019-06-04T14:21:02.000Z</time>
      </trkpt>
      <trkpt lat="45.80664" lon="5.79586">
        <ele>309.60000610352</ele>
        <time>2019-06-04T14:21:10.000Z</time>
      </trkpt>
      <trkpt lat="45.80675" lon="5.79594">
        <ele>309</ele>
        <time>2019-06-04T14:21:20.000Z</time>
      </trkpt>
      <trkpt lat="45.80676" lon="5.79594">
        <ele>308.79998779297</ele>
        <time>2019-06-04T14:21:22.000Z</time>
      </trkpt>
      <trkpt lat="45.80679" lon="5.79588">
        <ele>308</ele>
        <time>2019-06-04T14:21:32.000Z</time>
      </trkpt>
      <trkpt lat="45.80681" lon="5.79586">
        <ele>307.60000610352</ele>
        <time>2019-06-04T14:21:36.000Z</time>
      </trkpt>
      <trkpt lat="45.80684" lon="5.79586">
        <ele>307.20001220703</ele>
        <time>2019-06-04T14:21:42.000Z</time>
      </trkpt>
      <trkpt lat="45.80687" lon="5.79587">
        <ele>307.20001220703</ele>
        <time>2019-06-04T14:21:46.000Z</time>
      </trkpt>
      <trkpt lat="45.8069" lon="5.79588">
        <ele>307</ele>
        <time>2019-06-04T14:21:49.000Z</time>
      </trkpt>
      <trkpt lat="45.80703" lon="5.79593">
        <ele>307</ele>
        <time>2019-06-04T14:22:01.000Z</time>
      </trkpt>
      <trkpt lat="45.80708" lon="5.79589">
        <ele>307.20001220703</ele>
        <time>2019-06-04T14:22:22.000Z</time>
      </trkpt>
      <trkpt lat="45.80702" lon="5.79585">
        <ele>307</ele>
        <time>2019-06-04T14:22:39.000Z</time>
      </trkpt>
      <trkpt lat="45.80702" lon="5.79584">
        <ele>307</ele>
        <time>2019-06-04T14:22:52.000Z</time>
      </trkpt>
      <trkpt lat="45.80703" lon="5.79587">
        <ele>307</ele>
        <time>2019-06-04T14:22:57.000Z</time>
      </trkpt>
      <trkpt lat="45.80704" lon="5.79589">
        <ele>307</ele>
        <time>2019-06-04T14:23:11.000Z</time>
      </trkpt>
      <trkpt lat="45.80706" lon="5.79587">
        <ele>307</ele>
        <time>2019-06-04T14:23:20.000Z</time>
      </trkpt>
      <trkpt lat="45.80714" lon="5.7959">
        <ele>307</ele>
        <time>2019-06-04T14:23:42.000Z</time>
      </trkpt>
      <trkpt lat="45.80715" lon="5.79591">
        <ele>307</ele>
        <time>2019-06-04T14:23:44.000Z</time>
      </trkpt>
      <trkpt lat="45.80722" lon="5.796">
        <ele>307</ele>
        <time>2019-06-04T14:23:54.000Z</time>
      </trkpt>
      <trkpt lat="45.80722" lon="5.79601">
        <ele>307</ele>
        <time>2019-06-04T14:23:56.000Z</time>
      </trkpt>
      <trkpt lat="45.80723" lon="5.79602">
        <ele>307</ele>
        <time>2019-06-04T14:23:58.000Z</time>
      </trkpt>
      <trkpt lat="45.80724" lon="5.79603">
        <ele>307</ele>
        <time>2019-06-04T14:23:59.000Z</time>
      </trkpt>
      <trkpt lat="45.80725" lon="5.79604">
        <ele>307</ele>
        <time>2019-06-04T14:24:03.000Z</time>
      </trkpt>
      <trkpt lat="45.80733" lon="5.79615">
        <ele>307</ele>
        <time>2019-06-04T14:24:18.000Z</time>
      </trkpt>
      <trkpt lat="45.80752" lon="5.79622">
        <ele>307</ele>
        <time>2019-06-04T14:24:34.000Z</time>
      </trkpt>
      <trkpt lat="45.80757" lon="5.79626">
        <ele>310.20001220703</ele>
        <time>2019-06-04T14:24:40.000Z</time>
      </trkpt>
      <trkpt lat="45.80759" lon="5.79628">
        <ele>311.39999389648</ele>
        <time>2019-06-04T14:24:43.000Z</time>
      </trkpt>
      <trkpt lat="45.80763" lon="5.79628">
        <ele>312.60000610352</ele>
        <time>2019-06-04T14:24:52.000Z</time>
      </trkpt>
      <trkpt lat="45.80776" lon="5.79634">
        <ele>312.79998779297</ele>
        <time>2019-06-04T14:25:14.000Z</time>
      </trkpt>
      <trkpt lat="45.80793" lon="5.79643">
        <ele>312.20001220703</ele>
        <time>2019-06-04T14:25:34.000Z</time>
      </trkpt>
      <trkpt lat="45.80806" lon="5.79645">
        <ele>311.39999389648</ele>
        <time>2019-06-04T14:25:43.000Z</time>
      </trkpt>
      <trkpt lat="45.80815" lon="5.79647">
        <ele>310.39999389648</ele>
        <time>2019-06-04T14:25:52.000Z</time>
      </trkpt>
      <trkpt lat="45.80827" lon="5.79651">
        <ele>309.60000610352</ele>
        <time>2019-06-04T14:26:13.000Z</time>
      </trkpt>
      <trkpt lat="45.80834" lon="5.79651">
        <ele>310.20001220703</ele>
        <time>2019-06-04T14:26:28.000Z</time>
      </trkpt>
      <trkpt lat="45.80836" lon="5.7965">
        <ele>310.60000610352</ele>
        <time>2019-06-04T14:26:32.000Z</time>
      </trkpt>
      <trkpt lat="45.80837" lon="5.7965">
        <ele>310.60000610352</ele>
        <time>2019-06-04T14:26:34.000Z</time>
      </trkpt>
      <trkpt lat="45.80838" lon="5.7965">
        <ele>310.79998779297</ele>
        <time>2019-06-04T14:26:35.000Z</time>
      </trkpt>
      <trkpt lat="45.80838" lon="5.79649">
        <ele>310.79998779297</ele>
        <time>2019-06-04T14:26:36.000Z</time>
      </trkpt>
      <trkpt lat="45.80839" lon="5.79649">
        <ele>311</ele>
        <time>2019-06-04T14:26:37.000Z</time>
      </trkpt>
      <trkpt lat="45.80839" lon="5.79649">
        <ele>311</ele>
        <time>2019-06-04T14:26:38.000Z</time>
      </trkpt>
      <trkpt lat="45.80846" lon="5.79648">
        <ele>311.20001220703</ele>
        <time>2019-06-04T14:26:44.000Z</time>
      </trkpt>
      <trkpt lat="45.80846" lon="5.79648">
        <ele>311.20001220703</ele>
        <time>2019-06-04T14:26:45.000Z</time>
      </trkpt>
      <trkpt lat="45.80847" lon="5.79648">
        <ele>311.20001220703</ele>
        <time>2019-06-04T14:26:46.000Z</time>
      </trkpt>
      <trkpt lat="45.8085" lon="5.79648">
        <ele>311.20001220703</ele>
        <time>2019-06-04T14:26:53.000Z</time>
      </trkpt>
      <trkpt lat="45.80854" lon="5.79653">
        <ele>311.20001220703</ele>
        <time>2019-06-04T14:27:01.000Z</time>
      </trkpt>
      <trkpt lat="45.80861" lon="5.79656">
        <ele>311.39999389648</ele>
        <time>2019-06-04T14:27:11.000Z</time>
      </trkpt>
      <trkpt lat="45.80864" lon="5.7966">
        <ele>312.39999389648</ele>
        <time>2019-06-04T14:27:20.000Z</time>
      </trkpt>
      <trkpt lat="45.80864" lon="5.7966">
        <ele>312.39999389648</ele>
        <time>2019-06-04T14:27:21.000Z</time>
      </trkpt>
      <trkpt lat="45.80864" lon="5.7966">
        <ele>312.39999389648</ele>
        <time>2019-06-04T14:27:22.000Z</time>
      </trkpt>
      <trkpt lat="45.80865" lon="5.79661">
        <ele>312.79998779297</ele>
        <time>2019-06-04T14:27:26.000Z</time>
      </trkpt>
      <trkpt lat="45.80866" lon="5.79663">
        <ele>313.20001220703</ele>
        <time>2019-06-04T14:27:29.000Z</time>
      </trkpt>
      <trkpt lat="45.80867" lon="5.79663">
        <ele>313.20001220703</ele>
        <time>2019-06-04T14:27:30.000Z</time>
      </trkpt>
      <trkpt lat="45.80868" lon="5.79664">
        <ele>313.20001220703</ele>
        <time>2019-06-04T14:27:31.000Z</time>
      </trkpt>
      <trkpt lat="45.80868" lon="5.79664">
        <ele>313.39999389648</ele>
        <time>2019-06-04T14:27:32.000Z</time>
      </trkpt>
      <trkpt lat="45.80869" lon="5.79664">
        <ele>313.39999389648</ele>
        <time>2019-06-04T14:27:33.000Z</time>
      </trkpt>
      <trkpt lat="45.80869" lon="5.79665">
        <ele>313.60000610352</ele>
        <time>2019-06-04T14:27:34.000Z</time>
      </trkpt>
      <trkpt lat="45.8087" lon="5.79665">
        <ele>313.60000610352</ele>
        <time>2019-06-04T14:27:36.000Z</time>
      </trkpt>
      <trkpt lat="45.80871" lon="5.79666">
        <ele>313.79998779297</ele>
        <time>2019-06-04T14:27:37.000Z</time>
      </trkpt>
      <trkpt lat="45.80872" lon="5.79666">
        <ele>313.79998779297</ele>
        <time>2019-06-04T14:27:38.000Z</time>
      </trkpt>
      <trkpt lat="45.80873" lon="5.79667">
        <ele>313.79998779297</ele>
        <time>2019-06-04T14:27:39.000Z</time>
      </trkpt>
      <trkpt lat="45.80873" lon="5.79667">
        <ele>314</ele>
        <time>2019-06-04T14:27:40.000Z</time>
      </trkpt>
      <trkpt lat="45.80876" lon="5.79669">
        <ele>314.39999389648</ele>
        <time>2019-06-04T14:27:45.000Z</time>
      </trkpt>
      <trkpt lat="45.80878" lon="5.79669">
        <ele>314.60000610352</ele>
        <time>2019-06-04T14:27:47.000Z</time>
      </trkpt>
      <trkpt lat="45.80885" lon="5.7967">
        <ele>315.60000610352</ele>
        <time>2019-06-04T14:27:57.000Z</time>
      </trkpt>
      <trkpt lat="45.80892" lon="5.79673">
        <ele>316.79998779297</ele>
        <time>2019-06-04T14:28:08.000Z</time>
      </trkpt>
      <trkpt lat="45.80896" lon="5.79672">
        <ele>317.39999389648</ele>
        <time>2019-06-04T14:28:15.000Z</time>
      </trkpt>
      <trkpt lat="45.80896" lon="5.79672">
        <ele>317.60000610352</ele>
        <time>2019-06-04T14:28:16.000Z</time>
      </trkpt>
      <trkpt lat="45.80897" lon="5.79672">
        <ele>318</ele>
        <time>2019-06-04T14:28:18.000Z</time>
      </trkpt>
      <trkpt lat="45.80898" lon="5.79672">
        <ele>318.20001220703</ele>
        <time>2019-06-04T14:28:23.000Z</time>
      </trkpt>
      <trkpt lat="45.80899" lon="5.79673">
        <ele>318.60000610352</ele>
        <time>2019-06-04T14:28:25.000Z</time>
      </trkpt>
      <trkpt lat="45.809" lon="5.79673">
        <ele>318.60000610352</ele>
        <time>2019-06-04T14:28:26.000Z</time>
      </trkpt>
      <trkpt lat="45.80901" lon="5.79674">
        <ele>318.79998779297</ele>
        <time>2019-06-04T14:28:29.000Z</time>
      </trkpt>
      <trkpt lat="45.80902" lon="5.79674">
        <ele>319</ele>
        <time>2019-06-04T14:28:30.000Z</time>
      </trkpt>
      <trkpt lat="45.80902" lon="5.79675">
        <ele>319</ele>
        <time>2019-06-04T14:28:32.000Z</time>
      </trkpt>
      <trkpt lat="45.80904" lon="5.79675">
        <ele>319.20001220703</ele>
        <time>2019-06-04T14:28:35.000Z</time>
      </trkpt>
      <trkpt lat="45.80904" lon="5.79676">
        <ele>319.39999389648</ele>
        <time>2019-06-04T14:28:36.000Z</time>
      </trkpt>
      <trkpt lat="45.80905" lon="5.79676">
        <ele>319.39999389648</ele>
        <time>2019-06-04T14:28:37.000Z</time>
      </trkpt>
      <trkpt lat="45.80905" lon="5.79677">
        <ele>319.39999389648</ele>
        <time>2019-06-04T14:28:38.000Z</time>
      </trkpt>
      <trkpt lat="45.80906" lon="5.79677">
        <ele>319.39999389648</ele>
        <time>2019-06-04T14:28:40.000Z</time>
      </trkpt>
      <trkpt lat="45.80906" lon="5.79678">
        <ele>319.39999389648</ele>
        <time>2019-06-04T14:28:41.000Z</time>
      </trkpt>
      <trkpt lat="45.80906" lon="5.79678">
        <ele>319.60000610352</ele>
        <time>2019-06-04T14:28:42.000Z</time>
      </trkpt>
      <trkpt lat="45.80907" lon="5.79679">
        <ele>319.60000610352</ele>
        <time>2019-06-04T14:28:44.000Z</time>
      </trkpt>
      <trkpt lat="45.80909" lon="5.79679">
        <ele>320</ele>
        <time>2019-06-04T14:28:48.000Z</time>
      </trkpt>
      <trkpt lat="45.8092" lon="5.79683">
        <ele>320.20001220703</ele>
        <time>2019-06-04T14:29:07.000Z</time>
      </trkpt>
      <trkpt lat="45.80928" lon="5.7969">
        <ele>320.39999389648</ele>
        <time>2019-06-04T14:29:23.000Z</time>
      </trkpt>
      <trkpt lat="45.80932" lon="5.79696">
        <ele>321</ele>
        <time>2019-06-04T14:29:37.000Z</time>
      </trkpt>
      <trkpt lat="45.80932" lon="5.79699">
        <ele>321.79998779297</ele>
        <time>2019-06-04T14:29:51.000Z</time>
      </trkpt>
      <trkpt lat="45.80933" lon="5.79699">
        <ele>321.79998779297</ele>
        <time>2019-06-04T14:29:59.000Z</time>
      </trkpt>
      <trkpt lat="45.80934" lon="5.79699">
        <ele>322.20001220703</ele>
        <time>2019-06-04T14:30:07.000Z</time>
      </trkpt>
      <trkpt lat="45.80944" lon="5.79698">
        <ele>322.60000610352</ele>
        <time>2019-06-04T14:30:23.000Z</time>
      </trkpt>
      <trkpt lat="45.8095" lon="5.79706">
        <ele>321.60000610352</ele>
        <time>2019-06-04T14:31:18.000Z</time>
      </trkpt>
      <trkpt lat="45.8095" lon="5.79706">
        <ele>321.60000610352</ele>
        <time>2019-06-04T14:31:19.000Z</time>
      </trkpt>
      <trkpt lat="45.8096" lon="5.79712">
        <ele>321.60000610352</ele>
        <time>2019-06-04T14:31:54.000Z</time>
      </trkpt>
      <trkpt lat="45.80965" lon="5.79711">
        <ele>321.79998779297</ele>
        <time>2019-06-04T14:32:04.000Z</time>
      </trkpt>
      <trkpt lat="45.80965" lon="5.7971">
        <ele>321.79998779297</ele>
        <time>2019-06-04T14:32:05.000Z</time>
      </trkpt>
      <trkpt lat="45.80968" lon="5.79712">
        <ele>322.20001220703</ele>
        <time>2019-06-04T14:32:14.000Z</time>
      </trkpt>
      <trkpt lat="45.80971" lon="5.79714">
        <ele>323.20001220703</ele>
        <time>2019-06-04T14:32:23.000Z</time>
      </trkpt>
      <trkpt lat="45.80972" lon="5.79715">
        <ele>323.60000610352</ele>
        <time>2019-06-04T14:32:26.000Z</time>
      </trkpt>
      <trkpt lat="45.80973" lon="5.79716">
        <ele>323.79998779297</ele>
        <time>2019-06-04T14:32:27.000Z</time>
      </trkpt>
      <trkpt lat="45.80974" lon="5.79719">
        <ele>323.79998779297</ele>
        <time>2019-06-04T14:32:30.000Z</time>
      </trkpt>
      <trkpt lat="45.80972" lon="5.79714">
        <ele>324.39999389648</ele>
        <time>2019-06-04T14:32:40.000Z</time>
      </trkpt>
      <trkpt lat="45.80973" lon="5.79715">
        <ele>324.60000610352</ele>
        <time>2019-06-04T14:32:53.000Z</time>
      </trkpt>
      <trkpt lat="45.80973" lon="5.79715">
        <ele>325</ele>
        <time>2019-06-04T14:33:21.000Z</time>
      </trkpt>
      <trkpt lat="45.80975" lon="5.79716">
        <ele>325.39999389648</ele>
        <time>2019-06-04T14:33:27.000Z</time>
      </trkpt>
      <trkpt lat="45.80974" lon="5.79719">
        <ele>325.79998779297</ele>
        <time>2019-06-04T14:33:43.000Z</time>
      </trkpt>
      <trkpt lat="45.80973" lon="5.79715">
        <ele>326.39999389648</ele>
        <time>2019-06-04T14:34:01.000Z</time>
      </trkpt>
      <trkpt lat="45.8097" lon="5.79715">
        <ele>326.39999389648</ele>
        <time>2019-06-04T14:34:12.000Z</time>
      </trkpt>
      <trkpt lat="45.80971" lon="5.79718">
        <ele>327.39999389648</ele>
        <time>2019-06-04T14:34:30.000Z</time>
      </trkpt>
      <trkpt lat="45.80971" lon="5.7972">
        <ele>327.60000610352</ele>
        <time>2019-06-04T14:34:35.000Z</time>
      </trkpt>
      <trkpt lat="45.8097" lon="5.79721">
        <ele>328.20001220703</ele>
        <time>2019-06-04T14:34:40.000Z</time>
      </trkpt>
      <trkpt lat="45.8097" lon="5.79721">
        <ele>328.39999389648</ele>
        <time>2019-06-04T14:34:41.000Z</time>
      </trkpt>
      <trkpt lat="45.8097" lon="5.79721">
        <ele>328.39999389648</ele>
        <time>2019-06-04T14:34:42.000Z</time>
      </trkpt>
      <trkpt lat="45.80969" lon="5.79721">
        <ele>328.39999389648</ele>
        <time>2019-06-04T14:34:43.000Z</time>
      </trkpt>
      <trkpt lat="45.80969" lon="5.79722">
        <ele>328.60000610352</ele>
        <time>2019-06-04T14:34:45.000Z</time>
      </trkpt>
      <trkpt lat="45.80969" lon="5.79722">
        <ele>328.79998779297</ele>
        <time>2019-06-04T14:34:46.000Z</time>
      </trkpt>
      <trkpt lat="45.80969" lon="5.79723">
        <ele>328.79998779297</ele>
        <time>2019-06-04T14:34:47.000Z</time>
      </trkpt>
      <trkpt lat="45.80968" lon="5.79723">
        <ele>329.20001220703</ele>
        <time>2019-06-04T14:34:50.000Z</time>
      </trkpt>
      <trkpt lat="45.80968" lon="5.79724">
        <ele>329.20001220703</ele>
        <time>2019-06-04T14:34:51.000Z</time>
      </trkpt>
      <trkpt lat="45.80968" lon="5.79723">
        <ele>329.39999389648</ele>
        <time>2019-06-04T14:34:55.000Z</time>
      </trkpt>
      <trkpt lat="45.80968" lon="5.79722">
        <ele>330</ele>
        <time>2019-06-04T14:34:59.000Z</time>
      </trkpt>
      <trkpt lat="45.80968" lon="5.79722">
        <ele>330</ele>
        <time>2019-06-04T14:35:00.000Z</time>
      </trkpt>
      <trkpt lat="45.80968" lon="5.79722">
        <ele>330</ele>
        <time>2019-06-04T14:35:01.000Z</time>
      </trkpt>
      <trkpt lat="45.80968" lon="5.79722">
        <ele>330</ele>
        <time>2019-06-04T14:35:06.000Z</time>
      </trkpt>
      <trkpt lat="45.80968" lon="5.79721">
        <ele>330.20001220703</ele>
        <time>2019-06-04T14:35:09.000Z</time>
      </trkpt>
      <trkpt lat="45.80967" lon="5.79721">
        <ele>330.20001220703</ele>
        <time>2019-06-04T14:35:10.000Z</time>
      </trkpt>
      <trkpt lat="45.80967" lon="5.7972">
        <ele>330.39999389648</ele>
        <time>2019-06-04T14:35:15.000Z</time>
      </trkpt>
      <trkpt lat="45.80967" lon="5.79721">
        <ele>331</ele>
        <time>2019-06-04T14:35:22.000Z</time>
      </trkpt>
      <trkpt lat="45.80969" lon="5.79721">
        <ele>330.79998779297</ele>
        <time>2019-06-04T14:35:37.000Z</time>
      </trkpt>
      <trkpt lat="45.80969" lon="5.79723">
        <ele>330.79998779297</ele>
        <time>2019-06-04T14:35:42.000Z</time>
      </trkpt>
      <trkpt lat="45.80969" lon="5.79721">
        <ele>331</ele>
        <time>2019-06-04T14:35:50.000Z</time>
      </trkpt>
      <trkpt lat="45.80969" lon="5.7972">
        <ele>331</ele>
        <time>2019-06-04T14:35:55.000Z</time>
      </trkpt>
      <trkpt lat="45.8097" lon="5.7972">
        <ele>330.79998779297</ele>
        <time>2019-06-04T14:36:02.000Z</time>
      </trkpt>
      <trkpt lat="45.8097" lon="5.7972">
        <ele>331</ele>
        <time>2019-06-04T14:36:05.000Z</time>
      </trkpt>
      <trkpt lat="45.8097" lon="5.7972">
        <ele>331</ele>
        <time>2019-06-04T14:36:09.000Z</time>
      </trkpt>
      <trkpt lat="45.80969" lon="5.79718">
        <ele>331</ele>
        <time>2019-06-04T14:36:11.000Z</time>
      </trkpt>
      <trkpt lat="45.80968" lon="5.79717">
        <ele>331</ele>
        <time>2019-06-04T14:36:13.000Z</time>
      </trkpt>
      <trkpt lat="45.80966" lon="5.79718">
        <ele>331.20001220703</ele>
        <time>2019-06-04T14:36:18.000Z</time>
      </trkpt>
      <trkpt lat="45.80966" lon="5.79718">
        <ele>331.20001220703</ele>
        <time>2019-06-04T14:36:20.000Z</time>
      </trkpt>
      <trkpt lat="45.80965" lon="5.79717">
        <ele>331.60000610352</ele>
        <time>2019-06-04T14:36:22.000Z</time>
      </trkpt>
      <trkpt lat="45.80965" lon="5.79717">
        <ele>331.60000610352</ele>
        <time>2019-06-04T14:36:23.000Z</time>
      </trkpt>
      <trkpt lat="45.80965" lon="5.79718">
        <ele>331.79998779297</ele>
        <time>2019-06-04T14:36:24.000Z</time>
      </trkpt>
      <trkpt lat="45.80965" lon="5.79718">
        <ele>332</ele>
        <time>2019-06-04T14:36:25.000Z</time>
      </trkpt>
      <trkpt lat="45.80966" lon="5.79719">
        <ele>332.60000610352</ele>
        <time>2019-06-04T14:36:28.000Z</time>
      </trkpt>
      <trkpt lat="45.80966" lon="5.79719">
        <ele>332.79998779297</ele>
        <time>2019-06-04T14:36:32.000Z</time>
      </trkpt>
      <trkpt lat="45.80966" lon="5.7972">
        <ele>333.20001220703</ele>
        <time>2019-06-04T14:36:35.000Z</time>
      </trkpt>
      <trkpt lat="45.80966" lon="5.79722">
        <ele>333.79998779297</ele>
        <time>2019-06-04T14:36:41.000Z</time>
      </trkpt>
      <trkpt lat="45.80966" lon="5.79723">
        <ele>334.20001220703</ele>
        <time>2019-06-04T14:36:44.000Z</time>
      </trkpt>
      <trkpt lat="45.80967" lon="5.79725">
        <ele>334.60000610352</ele>
        <time>2019-06-04T14:36:47.000Z</time>
      </trkpt>
      <trkpt lat="45.80967" lon="5.79726">
        <ele>334.79998779297</ele>
        <time>2019-06-04T14:36:49.000Z</time>
      </trkpt>
      <trkpt lat="45.80966" lon="5.79727">
        <ele>336</ele>
        <time>2019-06-04T14:36:58.000Z</time>
      </trkpt>
      <trkpt lat="45.80967" lon="5.79729">
        <ele>337</ele>
        <time>2019-06-04T14:37:09.000Z</time>
      </trkpt>
      <trkpt lat="45.80966" lon="5.79729">
        <ele>337.20001220703</ele>
        <time>2019-06-04T14:37:10.000Z</time>
      </trkpt>
      <trkpt lat="45.80966" lon="5.7973">
        <ele>337.60000610352</ele>
        <time>2019-06-04T14:37:12.000Z</time>
      </trkpt>
      <trkpt lat="45.80966" lon="5.7973">
        <ele>337.79998779297</ele>
        <time>2019-06-04T14:37:13.000Z</time>
      </trkpt>
      <trkpt lat="45.80967" lon="5.79731">
        <ele>338</ele>
        <time>2019-06-04T14:37:14.000Z</time>
      </trkpt>
      <trkpt lat="45.80967" lon="5.79731">
        <ele>338.20001220703</ele>
        <time>2019-06-04T14:37:17.000Z</time>
      </trkpt>
      <trkpt lat="45.80968" lon="5.79732">
        <ele>338.60000610352</ele>
        <time>2019-06-04T14:37:23.000Z</time>
      </trkpt>
      <trkpt lat="45.80969" lon="5.79733">
        <ele>338.79998779297</ele>
        <time>2019-06-04T14:37:28.000Z</time>
      </trkpt>
      <trkpt lat="45.80967" lon="5.79732">
        <ele>339.39999389648</ele>
        <time>2019-06-04T14:37:33.000Z</time>
      </trkpt>
      <trkpt lat="45.80966" lon="5.79733">
        <ele>340.39999389648</ele>
        <time>2019-06-04T14:37:41.000Z</time>
      </trkpt>
      <trkpt lat="45.80967" lon="5.79736">
        <ele>340.79998779297</ele>
        <time>2019-06-04T14:37:50.000Z</time>
      </trkpt>
      <trkpt lat="45.80967" lon="5.79736">
        <ele>341</ele>
        <time>2019-06-04T14:37:51.000Z</time>
      </trkpt>
      <trkpt lat="45.80967" lon="5.79736">
        <ele>341</ele>
        <time>2019-06-04T14:37:52.000Z</time>
      </trkpt>
      <trkpt lat="45.80967" lon="5.79737">
        <ele>341</ele>
        <time>2019-06-04T14:37:56.000Z</time>
      </trkpt>
      <trkpt lat="45.80968" lon="5.79739">
        <ele>341.39999389648</ele>
        <time>2019-06-04T14:38:00.000Z</time>
      </trkpt>
      <trkpt lat="45.80969" lon="5.79739">
        <ele>341.39999389648</ele>
        <time>2019-06-04T14:38:01.000Z</time>
      </trkpt>
      <trkpt lat="45.8097" lon="5.79741">
        <ele>342.60000610352</ele>
        <time>2019-06-04T14:38:08.000Z</time>
      </trkpt>
      <trkpt lat="45.8097" lon="5.79742">
        <ele>343.60000610352</ele>
        <time>2019-06-04T14:38:13.000Z</time>
      </trkpt>
      <trkpt lat="45.80972" lon="5.79745">
        <ele>344.79998779297</ele>
        <time>2019-06-04T14:38:21.000Z</time>
      </trkpt>
      <trkpt lat="45.80971" lon="5.7975">
        <ele>346</ele>
        <time>2019-06-04T14:38:31.000Z</time>
      </trkpt>
      <trkpt lat="45.80969" lon="5.79751">
        <ele>347</ele>
        <time>2019-06-04T14:38:39.000Z</time>
      </trkpt>
      <trkpt lat="45.80969" lon="5.79751">
        <ele>347</ele>
        <time>2019-06-04T14:38:40.000Z</time>
      </trkpt>
      <trkpt lat="45.8097" lon="5.79753">
        <ele>347.60000610352</ele>
        <time>2019-06-04T14:38:49.000Z</time>
      </trkpt>
      <trkpt lat="45.80969" lon="5.79753">
        <ele>347.39999389648</ele>
        <time>2019-06-04T14:38:50.000Z</time>
      </trkpt>
      <trkpt lat="45.80969" lon="5.79753">
        <ele>347.39999389648</ele>
        <time>2019-06-04T14:38:51.000Z</time>
      </trkpt>
      <trkpt lat="45.80969" lon="5.79753">
        <ele>347.39999389648</ele>
        <time>2019-06-04T14:38:53.000Z</time>
      </trkpt>
      <trkpt lat="45.80969" lon="5.79753">
        <ele>347.39999389648</ele>
        <time>2019-06-04T14:38:54.000Z</time>
      </trkpt>
      <trkpt lat="45.80968" lon="5.79753">
        <ele>347.60000610352</ele>
        <time>2019-06-04T14:38:55.000Z</time>
      </trkpt>
      <trkpt lat="45.80968" lon="5.79752">
        <ele>347.60000610352</ele>
        <time>2019-06-04T14:38:56.000Z</time>
      </trkpt>
      <trkpt lat="45.80968" lon="5.79753">
        <ele>347.60000610352</ele>
        <time>2019-06-04T14:38:57.000Z</time>
      </trkpt>
      <trkpt lat="45.80968" lon="5.79753">
        <ele>347.60000610352</ele>
        <time>2019-06-04T14:38:58.000Z</time>
      </trkpt>
      <trkpt lat="45.80968" lon="5.79753">
        <ele>347.60000610352</ele>
        <time>2019-06-04T14:38:59.000Z</time>
      </trkpt>
      <trkpt lat="45.80967" lon="5.79753">
        <ele>348</ele>
        <time>2019-06-04T14:39:04.000Z</time>
      </trkpt>
      <trkpt lat="45.80967" lon="5.79757">
        <ele>348.60000610352</ele>
        <time>2019-06-04T14:39:10.000Z</time>
      </trkpt>
      <trkpt lat="45.80967" lon="5.79758">
        <ele>349.20001220703</ele>
        <time>2019-06-04T14:39:13.000Z</time>
      </trkpt>
      <trkpt lat="45.80968" lon="5.7976">
        <ele>349.79998779297</ele>
        <time>2019-06-04T14:39:17.000Z</time>
      </trkpt>
      <trkpt lat="45.80968" lon="5.79759">
        <ele>350.20001220703</ele>
        <time>2019-06-04T14:39:22.000Z</time>
      </trkpt>
      <trkpt lat="45.80968" lon="5.79759">
        <ele>350.60000610352</ele>
        <time>2019-06-04T14:39:25.000Z</time>
      </trkpt>
      <trkpt lat="45.80968" lon="5.7976">
        <ele>350.60000610352</ele>
        <time>2019-06-04T14:39:26.000Z</time>
      </trkpt>
      <trkpt lat="45.80968" lon="5.7976">
        <ele>350.60000610352</ele>
        <time>2019-06-04T14:39:27.000Z</time>
      </trkpt>
      <trkpt lat="45.80969" lon="5.79761">
        <ele>350.60000610352</ele>
        <time>2019-06-04T14:39:29.000Z</time>
      </trkpt>
      <trkpt lat="45.8097" lon="5.79762">
        <ele>350.60000610352</ele>
        <time>2019-06-04T14:39:32.000Z</time>
      </trkpt>
      <trkpt lat="45.80971" lon="5.79762">
        <ele>350.60000610352</ele>
        <time>2019-06-04T14:39:33.000Z</time>
      </trkpt>
      <trkpt lat="45.80972" lon="5.79763">
        <ele>350.60000610352</ele>
        <time>2019-06-04T14:39:35.000Z</time>
      </trkpt>
      <trkpt lat="45.80972" lon="5.79763">
        <ele>350.79998779297</ele>
        <time>2019-06-04T14:39:36.000Z</time>
      </trkpt>
      <trkpt lat="45.80973" lon="5.79764">
        <ele>350.79998779297</ele>
        <time>2019-06-04T14:39:37.000Z</time>
      </trkpt>
      <trkpt lat="45.80973" lon="5.79764">
        <ele>350.79998779297</ele>
        <time>2019-06-04T14:39:38.000Z</time>
      </trkpt>
      <trkpt lat="45.80974" lon="5.79764">
        <ele>350.79998779297</ele>
        <time>2019-06-04T14:39:40.000Z</time>
      </trkpt>
      <trkpt lat="45.80974" lon="5.79765">
        <ele>350.79998779297</ele>
        <time>2019-06-04T14:39:42.000Z</time>
      </trkpt>
      <trkpt lat="45.80974" lon="5.79763">
        <ele>351.39999389648</ele>
        <time>2019-06-04T14:39:50.000Z</time>
      </trkpt>
      <trkpt lat="45.80974" lon="5.79764">
        <ele>352.39999389648</ele>
        <time>2019-06-04T14:39:56.000Z</time>
      </trkpt>
      <trkpt lat="45.80973" lon="5.7977">
        <ele>353.39999389648</ele>
        <time>2019-06-04T14:40:07.000Z</time>
      </trkpt>
      <trkpt lat="45.80974" lon="5.79772">
        <ele>354.39999389648</ele>
        <time>2019-06-04T14:40:15.000Z</time>
      </trkpt>
      <trkpt lat="45.80974" lon="5.79775">
        <ele>354.79998779297</ele>
        <time>2019-06-04T14:40:19.000Z</time>
      </trkpt>
      <trkpt lat="45.80973" lon="5.79777">
        <ele>355</ele>
        <time>2019-06-04T14:40:28.000Z</time>
      </trkpt>
      <trkpt lat="45.80972" lon="5.79778">
        <ele>355.20001220703</ele>
        <time>2019-06-04T14:40:30.000Z</time>
      </trkpt>
      <trkpt lat="45.80972" lon="5.79778">
        <ele>355.20001220703</ele>
        <time>2019-06-04T14:40:31.000Z</time>
      </trkpt>
      <trkpt lat="45.80971" lon="5.79779">
        <ele>355.39999389648</ele>
        <time>2019-06-04T14:40:32.000Z</time>
      </trkpt>
      <trkpt lat="45.80971" lon="5.79779">
        <ele>355.60000610352</ele>
        <time>2019-06-04T14:40:33.000Z</time>
      </trkpt>
      <trkpt lat="45.80971" lon="5.7978">
        <ele>355.79998779297</ele>
        <time>2019-06-04T14:40:34.000Z</time>
      </trkpt>
      <trkpt lat="45.8097" lon="5.7978">
        <ele>355.79998779297</ele>
        <time>2019-06-04T14:40:35.000Z</time>
      </trkpt>
      <trkpt lat="45.8097" lon="5.79781">
        <ele>356</ele>
        <time>2019-06-04T14:40:36.000Z</time>
      </trkpt>
      <trkpt lat="45.80969" lon="5.79783">
        <ele>356.20001220703</ele>
        <time>2019-06-04T14:40:38.000Z</time>
      </trkpt>
      <trkpt lat="45.80969" lon="5.79784">
        <ele>356.39999389648</ele>
        <time>2019-06-04T14:40:40.000Z</time>
      </trkpt>
      <trkpt lat="45.80969" lon="5.79786">
        <ele>356.60000610352</ele>
        <time>2019-06-04T14:40:42.000Z</time>
      </trkpt>
      <trkpt lat="45.80968" lon="5.79792">
        <ele>357.60000610352</ele>
        <time>2019-06-04T14:40:52.000Z</time>
      </trkpt>
      <trkpt lat="45.80967" lon="5.79795">
        <ele>358.20001220703</ele>
        <time>2019-06-04T14:40:58.000Z</time>
      </trkpt>
      <trkpt lat="45.80967" lon="5.79795">
        <ele>358.20001220703</ele>
        <time>2019-06-04T14:40:59.000Z</time>
      </trkpt>
      <trkpt lat="45.80968" lon="5.79797">
        <ele>358.79998779297</ele>
        <time>2019-06-04T14:41:03.000Z</time>
      </trkpt>
      <trkpt lat="45.80966" lon="5.79799">
        <ele>359.79998779297</ele>
        <time>2019-06-04T14:41:11.000Z</time>
      </trkpt>
      <trkpt lat="45.80967" lon="5.79799">
        <ele>360.79998779297</ele>
        <time>2019-06-04T14:41:20.000Z</time>
      </trkpt>
      <trkpt lat="45.80965" lon="5.79806">
        <ele>361.79998779297</ele>
        <time>2019-06-04T14:41:31.000Z</time>
      </trkpt>
      <trkpt lat="45.80964" lon="5.79807">
        <ele>362</ele>
        <time>2019-06-04T14:41:32.000Z</time>
      </trkpt>
      <trkpt lat="45.80963" lon="5.79808">
        <ele>362.39999389648</ele>
        <time>2019-06-04T14:41:37.000Z</time>
      </trkpt>
      <trkpt lat="45.80963" lon="5.79809">
        <ele>362.39999389648</ele>
        <time>2019-06-04T14:41:38.000Z</time>
      </trkpt>
      <trkpt lat="45.80963" lon="5.79809">
        <ele>362.39999389648</ele>
        <time>2019-06-04T14:41:39.000Z</time>
      </trkpt>
      <trkpt lat="45.80963" lon="5.79809">
        <ele>362.60000610352</ele>
        <time>2019-06-04T14:41:40.000Z</time>
      </trkpt>
      <trkpt lat="45.80963" lon="5.7981">
        <ele>362.79998779297</ele>
        <time>2019-06-04T14:41:41.000Z</time>
      </trkpt>
      <trkpt lat="45.80964" lon="5.79812">
        <ele>363.79998779297</ele>
        <time>2019-06-04T14:41:48.000Z</time>
      </trkpt>
      <trkpt lat="45.80963" lon="5.79815">
        <ele>364.79998779297</ele>
        <time>2019-06-04T14:41:55.000Z</time>
      </trkpt>
      <trkpt lat="45.80965" lon="5.79815">
        <ele>366</ele>
        <time>2019-06-04T14:42:03.000Z</time>
      </trkpt>
      <trkpt lat="45.80965" lon="5.79815">
        <ele>366</ele>
        <time>2019-06-04T14:42:04.000Z</time>
      </trkpt>
      <trkpt lat="45.80964" lon="5.79815">
        <ele>366</ele>
        <time>2019-06-04T14:42:06.000Z</time>
      </trkpt>
      <trkpt lat="45.80964" lon="5.79815">
        <ele>366.20001220703</ele>
        <time>2019-06-04T14:42:10.000Z</time>
      </trkpt>
      <trkpt lat="45.80963" lon="5.79828">
        <ele>366.39999389648</ele>
        <time>2019-06-04T14:42:28.000Z</time>
      </trkpt>
      <trkpt lat="45.80962" lon="5.79832">
        <ele>366.60000610352</ele>
        <time>2019-06-04T14:42:34.000Z</time>
      </trkpt>
      <trkpt lat="45.80961" lon="5.79835">
        <ele>366.79998779297</ele>
        <time>2019-06-04T14:42:38.000Z</time>
      </trkpt>
      <trkpt lat="45.80961" lon="5.79836">
        <ele>367</ele>
        <time>2019-06-04T14:42:39.000Z</time>
      </trkpt>
      <trkpt lat="45.80961" lon="5.79837">
        <ele>367.20001220703</ele>
        <time>2019-06-04T14:42:42.000Z</time>
      </trkpt>
      <trkpt lat="45.80961" lon="5.79843">
        <ele>367.39999389648</ele>
        <time>2019-06-04T14:42:49.000Z</time>
      </trkpt>
      <trkpt lat="45.80961" lon="5.79846">
        <ele>367.60000610352</ele>
        <time>2019-06-04T14:42:52.000Z</time>
      </trkpt>
      <trkpt lat="45.8096" lon="5.79847">
        <ele>367.79998779297</ele>
        <time>2019-06-04T14:42:53.000Z</time>
      </trkpt>
      <trkpt lat="45.8096" lon="5.79848">
        <ele>367.79998779297</ele>
        <time>2019-06-04T14:42:54.000Z</time>
      </trkpt>
      <trkpt lat="45.8096" lon="5.79849">
        <ele>367.79998779297</ele>
        <time>2019-06-04T14:42:55.000Z</time>
      </trkpt>
      <trkpt lat="45.8096" lon="5.7985">
        <ele>368</ele>
        <time>2019-06-04T14:42:56.000Z</time>
      </trkpt>
      <trkpt lat="45.8096" lon="5.7985">
        <ele>368</ele>
        <time>2019-06-04T14:42:57.000Z</time>
      </trkpt>
      <trkpt lat="45.80959" lon="5.79852">
        <ele>368</ele>
        <time>2019-06-04T14:42:58.000Z</time>
      </trkpt>
      <trkpt lat="45.80959" lon="5.79852">
        <ele>368</ele>
        <time>2019-06-04T14:42:59.000Z</time>
      </trkpt>
      <trkpt lat="45.80958" lon="5.79853">
        <ele>368</ele>
        <time>2019-06-04T14:43:00.000Z</time>
      </trkpt>
      <trkpt lat="45.80958" lon="5.79855">
        <ele>368.20001220703</ele>
        <time>2019-06-04T14:43:02.000Z</time>
      </trkpt>
      <trkpt lat="45.80957" lon="5.79855">
        <ele>368.20001220703</ele>
        <time>2019-06-04T14:43:03.000Z</time>
      </trkpt>
      <trkpt lat="45.80957" lon="5.79856">
        <ele>368.20001220703</ele>
        <time>2019-06-04T14:43:04.000Z</time>
      </trkpt>
      <trkpt lat="45.80956" lon="5.79856">
        <ele>368.39999389648</ele>
        <time>2019-06-04T14:43:05.000Z</time>
      </trkpt>
      <trkpt lat="45.80956" lon="5.79857">
        <ele>368.39999389648</ele>
        <time>2019-06-04T14:43:06.000Z</time>
      </trkpt>
      <trkpt lat="45.80956" lon="5.79857">
        <ele>368.39999389648</ele>
        <time>2019-06-04T14:43:07.000Z</time>
      </trkpt>
      <trkpt lat="45.80955" lon="5.79858">
        <ele>368.60000610352</ele>
        <time>2019-06-04T14:43:08.000Z</time>
      </trkpt>
      <trkpt lat="45.80954" lon="5.7986">
        <ele>369</ele>
        <time>2019-06-04T14:43:10.000Z</time>
      </trkpt>
      <trkpt lat="45.80947" lon="5.79865">
        <ele>370</ele>
        <time>2019-06-04T14:43:21.000Z</time>
      </trkpt>
      <trkpt lat="45.80943" lon="5.79866">
        <ele>370.39999389648</ele>
        <time>2019-06-04T14:43:28.000Z</time>
      </trkpt>
      <trkpt lat="45.8094" lon="5.79866">
        <ele>370.79998779297</ele>
        <time>2019-06-04T14:43:31.000Z</time>
      </trkpt>
      <trkpt lat="45.80939" lon="5.79867">
        <ele>371</ele>
        <time>2019-06-04T14:43:34.000Z</time>
      </trkpt>
      <trkpt lat="45.80937" lon="5.79867">
        <ele>371.20001220703</ele>
        <time>2019-06-04T14:43:36.000Z</time>
      </trkpt>
      <trkpt lat="45.80937" lon="5.79867">
        <ele>371.20001220703</ele>
        <time>2019-06-04T14:43:37.000Z</time>
      </trkpt>
      <trkpt lat="45.80931" lon="5.79873">
        <ele>372.20001220703</ele>
        <time>2019-06-04T14:43:48.000Z</time>
      </trkpt>
      <trkpt lat="45.80929" lon="5.79876">
        <ele>372.60000610352</ele>
        <time>2019-06-04T14:43:54.000Z</time>
      </trkpt>
      <trkpt lat="45.80928" lon="5.79877">
        <ele>372.60000610352</ele>
        <time>2019-06-04T14:43:56.000Z</time>
      </trkpt>
      <trkpt lat="45.80928" lon="5.79877">
        <ele>372.60000610352</ele>
        <time>2019-06-04T14:43:57.000Z</time>
      </trkpt>
      <trkpt lat="45.80928" lon="5.79876">
        <ele>372.79998779297</ele>
        <time>2019-06-04T14:43:58.000Z</time>
      </trkpt>
      <trkpt lat="45.80927" lon="5.79876">
        <ele>372.79998779297</ele>
        <time>2019-06-04T14:43:59.000Z</time>
      </trkpt>
      <trkpt lat="45.80927" lon="5.79876">
        <ele>373</ele>
        <time>2019-06-04T14:44:00.000Z</time>
      </trkpt>
      <trkpt lat="45.80926" lon="5.79876">
        <ele>373</ele>
        <time>2019-06-04T14:44:01.000Z</time>
      </trkpt>
      <trkpt lat="45.80925" lon="5.79876">
        <ele>373</ele>
        <time>2019-06-04T14:44:02.000Z</time>
      </trkpt>
      <trkpt lat="45.80925" lon="5.79876">
        <ele>373</ele>
        <time>2019-06-04T14:44:03.000Z</time>
      </trkpt>
      <trkpt lat="45.80924" lon="5.79877">
        <ele>373.20001220703</ele>
        <time>2019-06-04T14:44:05.000Z</time>
      </trkpt>
      <trkpt lat="45.80923" lon="5.79877">
        <ele>373.20001220703</ele>
        <time>2019-06-04T14:44:06.000Z</time>
      </trkpt>
      <trkpt lat="45.80923" lon="5.79878">
        <ele>373.39999389648</ele>
        <time>2019-06-04T14:44:07.000Z</time>
      </trkpt>
      <trkpt lat="45.80922" lon="5.79878">
        <ele>373.39999389648</ele>
        <time>2019-06-04T14:44:08.000Z</time>
      </trkpt>
      <trkpt lat="45.80922" lon="5.79879">
        <ele>373.60000610352</ele>
        <time>2019-06-04T14:44:09.000Z</time>
      </trkpt>
      <trkpt lat="45.8092" lon="5.79879">
        <ele>373.79998779297</ele>
        <time>2019-06-04T14:44:11.000Z</time>
      </trkpt>
      <trkpt lat="45.80917" lon="5.7988">
        <ele>374.20001220703</ele>
        <time>2019-06-04T14:44:16.000Z</time>
      </trkpt>
      <trkpt lat="45.80917" lon="5.79881">
        <ele>374.39999389648</ele>
        <time>2019-06-04T14:44:17.000Z</time>
      </trkpt>
      <trkpt lat="45.80905" lon="5.79883">
        <ele>375.39999389648</ele>
        <time>2019-06-04T14:44:32.000Z</time>
      </trkpt>
      <trkpt lat="45.809" lon="5.79881">
        <ele>376.20001220703</ele>
        <time>2019-06-04T14:44:40.000Z</time>
      </trkpt>
      <trkpt lat="45.80899" lon="5.79882">
        <ele>376.39999389648</ele>
        <time>2019-06-04T14:44:42.000Z</time>
      </trkpt>
      <trkpt lat="45.80896" lon="5.79882">
        <ele>376.79998779297</ele>
        <time>2019-06-04T14:44:46.000Z</time>
      </trkpt>
      <trkpt lat="45.80892" lon="5.79882">
        <ele>377.39999389648</ele>
        <time>2019-06-04T14:44:51.000Z</time>
      </trkpt>
      <trkpt lat="45.80883" lon="5.79881">
        <ele>378.39999389648</ele>
        <time>2019-06-04T14:45:08.000Z</time>
      </trkpt>
      <trkpt lat="45.80879" lon="5.79878">
        <ele>379.60000610352</ele>
        <time>2019-06-04T14:45:18.000Z</time>
      </trkpt>
      <trkpt lat="45.80878" lon="5.79878">
        <ele>380</ele>
        <time>2019-06-04T14:45:23.000Z</time>
      </trkpt>
      <trkpt lat="45.80877" lon="5.79878">
        <ele>380.20001220703</ele>
        <time>2019-06-04T14:45:24.000Z</time>
      </trkpt>
      <trkpt lat="45.80874" lon="5.79878">
        <ele>380.60000610352</ele>
        <time>2019-06-04T14:45:29.000Z</time>
      </trkpt>
      <trkpt lat="45.80873" lon="5.79878">
        <ele>380.79998779297</ele>
        <time>2019-06-04T14:45:32.000Z</time>
      </trkpt>
      <trkpt lat="45.80871" lon="5.79876">
        <ele>381.79998779297</ele>
        <time>2019-06-04T14:45:39.000Z</time>
      </trkpt>
      <trkpt lat="45.80871" lon="5.79876">
        <ele>382.39999389648</ele>
        <time>2019-06-04T14:45:42.000Z</time>
      </trkpt>
      <trkpt lat="45.80869" lon="5.79875">
        <ele>382.79998779297</ele>
        <time>2019-06-04T14:45:48.000Z</time>
      </trkpt>
      <trkpt lat="45.80868" lon="5.79872">
        <ele>384</ele>
        <time>2019-06-04T14:45:58.000Z</time>
      </trkpt>
      <trkpt lat="45.80867" lon="5.79871">
        <ele>384.79998779297</ele>
        <time>2019-06-04T14:46:03.000Z</time>
      </trkpt>
      <trkpt lat="45.80866" lon="5.7987">
        <ele>385</ele>
        <time>2019-06-04T14:46:06.000Z</time>
      </trkpt>
      <trkpt lat="45.80866" lon="5.7987">
        <ele>385</ele>
        <time>2019-06-04T14:46:07.000Z</time>
      </trkpt>
      <trkpt lat="45.80866" lon="5.79869">
        <ele>385</ele>
        <time>2019-06-04T14:46:08.000Z</time>
      </trkpt>
      <trkpt lat="45.80866" lon="5.79868">
        <ele>385.39999389648</ele>
        <time>2019-06-04T14:46:13.000Z</time>
      </trkpt>
      <trkpt lat="45.80866" lon="5.79868">
        <ele>385.60000610352</ele>
        <time>2019-06-04T14:46:14.000Z</time>
      </trkpt>
      <trkpt lat="45.80866" lon="5.79868">
        <ele>385.60000610352</ele>
        <time>2019-06-04T14:46:15.000Z</time>
      </trkpt>
      <trkpt lat="45.80866" lon="5.79867">
        <ele>385.79998779297</ele>
        <time>2019-06-04T14:46:16.000Z</time>
      </trkpt>
      <trkpt lat="45.80866" lon="5.79867">
        <ele>386</ele>
        <time>2019-06-04T14:46:18.000Z</time>
      </trkpt>
      <trkpt lat="45.80865" lon="5.79866">
        <ele>386.79998779297</ele>
        <time>2019-06-04T14:46:25.000Z</time>
      </trkpt>
      <trkpt lat="45.80864" lon="5.79866">
        <ele>387</ele>
        <time>2019-06-04T14:46:27.000Z</time>
      </trkpt>
      <trkpt lat="45.80864" lon="5.79866">
        <ele>387.20001220703</ele>
        <time>2019-06-04T14:46:28.000Z</time>
      </trkpt>
      <trkpt lat="45.80864" lon="5.79866">
        <ele>387.39999389648</ele>
        <time>2019-06-04T14:46:29.000Z</time>
      </trkpt>
      <trkpt lat="45.80863" lon="5.79866">
        <ele>387.60000610352</ele>
        <time>2019-06-04T14:46:33.000Z</time>
      </trkpt>
      <trkpt lat="45.80861" lon="5.79866">
        <ele>388.20001220703</ele>
        <time>2019-06-04T14:46:37.000Z</time>
      </trkpt>
      <trkpt lat="45.80857" lon="5.79864">
        <ele>389</ele>
        <time>2019-06-04T14:46:47.000Z</time>
      </trkpt>
      <trkpt lat="45.80856" lon="5.79864">
        <ele>389.20001220703</ele>
        <time>2019-06-04T14:46:49.000Z</time>
      </trkpt>
      <trkpt lat="45.80856" lon="5.79866">
        <ele>390.39999389648</ele>
        <time>2019-06-04T14:46:56.000Z</time>
      </trkpt>
      <trkpt lat="45.80853" lon="5.79866">
        <ele>391.39999389648</ele>
        <time>2019-06-04T14:47:06.000Z</time>
      </trkpt>
      <trkpt lat="45.80851" lon="5.79867">
        <ele>392.39999389648</ele>
        <time>2019-06-04T14:47:13.000Z</time>
      </trkpt>
      <trkpt lat="45.80849" lon="5.79866">
        <ele>393.60000610352</ele>
        <time>2019-06-04T14:47:21.000Z</time>
      </trkpt>
      <trkpt lat="45.80849" lon="5.79866">
        <ele>393.79998779297</ele>
        <time>2019-06-04T14:47:23.000Z</time>
      </trkpt>
      <trkpt lat="45.80849" lon="5.79867">
        <ele>394</ele>
        <time>2019-06-04T14:47:24.000Z</time>
      </trkpt>
      <trkpt lat="45.80849" lon="5.79867">
        <ele>394.20001220703</ele>
        <time>2019-06-04T14:47:25.000Z</time>
      </trkpt>
      <trkpt lat="45.80849" lon="5.79867">
        <ele>394.39999389648</ele>
        <time>2019-06-04T14:47:26.000Z</time>
      </trkpt>
      <trkpt lat="45.80849" lon="5.79867">
        <ele>394.79998779297</ele>
        <time>2019-06-04T14:47:27.000Z</time>
      </trkpt>
      <trkpt lat="45.80849" lon="5.79867">
        <ele>395</ele>
        <time>2019-06-04T14:47:28.000Z</time>
      </trkpt>
      <trkpt lat="45.80848" lon="5.79867">
        <ele>395</ele>
        <time>2019-06-04T14:47:29.000Z</time>
      </trkpt>
      <trkpt lat="45.80848" lon="5.79866">
        <ele>395</ele>
        <time>2019-06-04T14:47:30.000Z</time>
      </trkpt>
      <trkpt lat="45.80848" lon="5.79866">
        <ele>395.20001220703</ele>
        <time>2019-06-04T14:47:31.000Z</time>
      </trkpt>
      <trkpt lat="45.80847" lon="5.79865">
        <ele>395.20001220703</ele>
        <time>2019-06-04T14:47:32.000Z</time>
      </trkpt>
      <trkpt lat="45.80847" lon="5.79865">
        <ele>395.39999389648</ele>
        <time>2019-06-04T14:47:33.000Z</time>
      </trkpt>
      <trkpt lat="45.80846" lon="5.79865">
        <ele>395.60000610352</ele>
        <time>2019-06-04T14:47:34.000Z</time>
      </trkpt>
      <trkpt lat="45.80845" lon="5.79865">
        <ele>395.79998779297</ele>
        <time>2019-06-04T14:47:36.000Z</time>
      </trkpt>
      <trkpt lat="45.8084" lon="5.79864">
        <ele>397</ele>
        <time>2019-06-04T14:47:46.000Z</time>
      </trkpt>
      <trkpt lat="45.80835" lon="5.79866">
        <ele>398</ele>
        <time>2019-06-04T14:47:57.000Z</time>
      </trkpt>
      <trkpt lat="45.80833" lon="5.79865">
        <ele>399</ele>
        <time>2019-06-04T14:48:03.000Z</time>
      </trkpt>
      <trkpt lat="45.80832" lon="5.79864">
        <ele>399.20001220703</ele>
        <time>2019-06-04T14:48:05.000Z</time>
      </trkpt>
      <trkpt lat="45.80831" lon="5.79864">
        <ele>399.20001220703</ele>
        <time>2019-06-04T14:48:06.000Z</time>
      </trkpt>
      <trkpt lat="45.8083" lon="5.79863">
        <ele>399.39999389648</ele>
        <time>2019-06-04T14:48:08.000Z</time>
      </trkpt>
      <trkpt lat="45.8083" lon="5.79863">
        <ele>399.39999389648</ele>
        <time>2019-06-04T14:48:09.000Z</time>
      </trkpt>
      <trkpt lat="45.8083" lon="5.79862">
        <ele>399.60000610352</ele>
        <time>2019-06-04T14:48:10.000Z</time>
      </trkpt>
      <trkpt lat="45.80829" lon="5.79862">
        <ele>399.60000610352</ele>
        <time>2019-06-04T14:48:11.000Z</time>
      </trkpt>
      <trkpt lat="45.80829" lon="5.79862">
        <ele>399.79998779297</ele>
        <time>2019-06-04T14:48:12.000Z</time>
      </trkpt>
      <trkpt lat="45.80829" lon="5.79862">
        <ele>399.79998779297</ele>
        <time>2019-06-04T14:48:13.000Z</time>
      </trkpt>
      <trkpt lat="45.80828" lon="5.79863">
        <ele>399.79998779297</ele>
        <time>2019-06-04T14:48:14.000Z</time>
      </trkpt>
      <trkpt lat="45.80827" lon="5.79863">
        <ele>399.79998779297</ele>
        <time>2019-06-04T14:48:15.000Z</time>
      </trkpt>
      <trkpt lat="45.80827" lon="5.79863">
        <ele>400.20001220703</ele>
        <time>2019-06-04T14:48:16.000Z</time>
      </trkpt>
      <trkpt lat="45.80826" lon="5.79862">
        <ele>400.39999389648</ele>
        <time>2019-06-04T14:48:17.000Z</time>
      </trkpt>
      <trkpt lat="45.80826" lon="5.79862">
        <ele>400.60000610352</ele>
        <time>2019-06-04T14:48:18.000Z</time>
      </trkpt>
      <trkpt lat="45.80825" lon="5.79861">
        <ele>401</ele>
        <time>2019-06-04T14:48:23.000Z</time>
      </trkpt>
      <trkpt lat="45.80824" lon="5.7986">
        <ele>401.20001220703</ele>
        <time>2019-06-04T14:48:24.000Z</time>
      </trkpt>
      <trkpt lat="45.80822" lon="5.79859">
        <ele>402.39999389648</ele>
        <time>2019-06-04T14:48:30.000Z</time>
      </trkpt>
      <trkpt lat="45.80817" lon="5.7986">
        <ele>403.60000610352</ele>
        <time>2019-06-04T14:48:38.000Z</time>
      </trkpt>
      <trkpt lat="45.80813" lon="5.79856">
        <ele>404.60000610352</ele>
        <time>2019-06-04T14:48:52.000Z</time>
      </trkpt>
      <trkpt lat="45.80812" lon="5.79864">
        <ele>405.39999389648</ele>
        <time>2019-06-04T14:49:26.000Z</time>
      </trkpt>
      <trkpt lat="45.80812" lon="5.79864">
        <ele>405.60000610352</ele>
        <time>2019-06-04T14:49:27.000Z</time>
      </trkpt>
      <trkpt lat="45.80812" lon="5.79863">
        <ele>405.39999389648</ele>
        <time>2019-06-04T14:49:28.000Z</time>
      </trkpt>
      <trkpt lat="45.80812" lon="5.79863">
        <ele>405.39999389648</ele>
        <time>2019-06-04T14:49:29.000Z</time>
      </trkpt>
      <trkpt lat="45.80812" lon="5.79863">
        <ele>405.39999389648</ele>
        <time>2019-06-04T14:49:30.000Z</time>
      </trkpt>
      <trkpt lat="45.80812" lon="5.79863">
        <ele>405.39999389648</ele>
        <time>2019-06-04T14:49:31.000Z</time>
      </trkpt>
      <trkpt lat="45.80812" lon="5.79862">
        <ele>405.39999389648</ele>
        <time>2019-06-04T14:49:32.000Z</time>
      </trkpt>
      <trkpt lat="45.80811" lon="5.79862">
        <ele>405.39999389648</ele>
        <time>2019-06-04T14:49:33.000Z</time>
      </trkpt>
      <trkpt lat="45.80811" lon="5.79862">
        <ele>405.39999389648</ele>
        <time>2019-06-04T14:49:34.000Z</time>
      </trkpt>
      <trkpt lat="45.80811" lon="5.79861">
        <ele>405.39999389648</ele>
        <time>2019-06-04T14:49:35.000Z</time>
      </trkpt>
      <trkpt lat="45.8081" lon="5.7986">
        <ele>405.39999389648</ele>
        <time>2019-06-04T14:49:36.000Z</time>
      </trkpt>
      <trkpt lat="45.80807" lon="5.79851">
        <ele>405.39999389648</ele>
        <time>2019-06-04T14:49:45.000Z</time>
      </trkpt>
      <trkpt lat="45.80805" lon="5.79847">
        <ele>405.39999389648</ele>
        <time>2019-06-04T14:49:51.000Z</time>
      </trkpt>
      <trkpt lat="45.80805" lon="5.79847">
        <ele>405.39999389648</ele>
        <time>2019-06-04T14:49:52.000Z</time>
      </trkpt>
      <trkpt lat="45.80804" lon="5.79846">
        <ele>405.60000610352</ele>
        <time>2019-06-04T14:49:53.000Z</time>
      </trkpt>
      <trkpt lat="45.80803" lon="5.79845">
        <ele>405.39999389648</ele>
        <time>2019-06-04T14:49:54.000Z</time>
      </trkpt>
      <trkpt lat="45.80799" lon="5.79843">
        <ele>405.60000610352</ele>
        <time>2019-06-04T14:50:00.000Z</time>
      </trkpt>
      <trkpt lat="45.80798" lon="5.79843">
        <ele>405.60000610352</ele>
        <time>2019-06-04T14:50:01.000Z</time>
      </trkpt>
      <trkpt lat="45.80796" lon="5.79841">
        <ele>405.60000610352</ele>
        <time>2019-06-04T14:50:04.000Z</time>
      </trkpt>
      <trkpt lat="45.80794" lon="5.79839">
        <ele>405.60000610352</ele>
        <time>2019-06-04T14:50:06.000Z</time>
      </trkpt>
      <trkpt lat="45.80787" lon="5.79832">
        <ele>405.79998779297</ele>
        <time>2019-06-04T14:50:14.000Z</time>
      </trkpt>
      <trkpt lat="45.80787" lon="5.7983">
        <ele>405.79998779297</ele>
        <time>2019-06-04T14:50:16.000Z</time>
      </trkpt>
      <trkpt lat="45.80789" lon="5.79824">
        <ele>405.79998779297</ele>
        <time>2019-06-04T14:50:22.000Z</time>
      </trkpt>
      <trkpt lat="45.8079" lon="5.79823">
        <ele>405.79998779297</ele>
        <time>2019-06-04T14:50:23.000Z</time>
      </trkpt>
      <trkpt lat="45.80792" lon="5.79821">
        <ele>405.60000610352</ele>
        <time>2019-06-04T14:50:25.000Z</time>
      </trkpt>
      <trkpt lat="45.80796" lon="5.79817">
        <ele>405.39999389648</ele>
        <time>2019-06-04T14:50:30.000Z</time>
      </trkpt>
      <trkpt lat="45.80799" lon="5.79813">
        <ele>404.79998779297</ele>
        <time>2019-06-04T14:50:40.000Z</time>
      </trkpt>
      <trkpt lat="45.80799" lon="5.79812">
        <ele>404.79998779297</ele>
        <time>2019-06-04T14:50:42.000Z</time>
      </trkpt>
      <trkpt lat="45.808" lon="5.79812">
        <ele>405.39999389648</ele>
        <time>2019-06-04T14:50:45.000Z</time>
      </trkpt>
      <trkpt lat="45.80805" lon="5.79803">
        <ele>405.39999389648</ele>
        <time>2019-06-04T14:50:55.000Z</time>
      </trkpt>
      <trkpt lat="45.80806" lon="5.79802">
        <ele>405.39999389648</ele>
        <time>2019-06-04T14:50:58.000Z</time>
      </trkpt>
      <trkpt lat="45.80807" lon="5.79802">
        <ele>405.39999389648</ele>
        <time>2019-06-04T14:50:59.000Z</time>
      </trkpt>
      <trkpt lat="45.80808" lon="5.79802">
        <ele>405.39999389648</ele>
        <time>2019-06-04T14:51:01.000Z</time>
      </trkpt>
      <trkpt lat="45.80809" lon="5.79801">
        <ele>405.39999389648</ele>
        <time>2019-06-04T14:51:03.000Z</time>
      </trkpt>
      <trkpt lat="45.8081" lon="5.79801">
        <ele>405.39999389648</ele>
        <time>2019-06-04T14:51:04.000Z</time>
      </trkpt>
      <trkpt lat="45.80812" lon="5.798">
        <ele>405.39999389648</ele>
        <time>2019-06-04T14:51:06.000Z</time>
      </trkpt>
      <trkpt lat="45.80827" lon="5.79798">
        <ele>405.39999389648</ele>
        <time>2019-06-04T14:51:25.000Z</time>
      </trkpt>
      <trkpt lat="45.8083" lon="5.79796">
        <ele>405.39999389648</ele>
        <time>2019-06-04T14:51:30.000Z</time>
      </trkpt>
      <trkpt lat="45.80838" lon="5.79789">
        <ele>405.39999389648</ele>
        <time>2019-06-04T14:51:44.000Z</time>
      </trkpt>
      <trkpt lat="45.8084" lon="5.79787">
        <ele>405.39999389648</ele>
        <time>2019-06-04T14:51:47.000Z</time>
      </trkpt>
      <trkpt lat="45.80846" lon="5.79777">
        <ele>405.39999389648</ele>
        <time>2019-06-04T14:52:01.000Z</time>
      </trkpt>
      <trkpt lat="45.80855" lon="5.79763">
        <ele>405.39999389648</ele>
        <time>2019-06-04T14:52:19.000Z</time>
      </trkpt>
      <trkpt lat="45.80855" lon="5.79761">
        <ele>405.39999389648</ele>
        <time>2019-06-04T14:52:33.000Z</time>
      </trkpt>
      <trkpt lat="45.80855" lon="5.7976">
        <ele>403</ele>
        <time>2019-06-04T14:52:46.000Z</time>
      </trkpt>
      <trkpt lat="45.80855" lon="5.79761">
        <ele>404.20001220703</ele>
        <time>2019-06-04T14:52:49.000Z</time>
      </trkpt>
      <trkpt lat="45.80854" lon="5.7976">
        <ele>404</ele>
        <time>2019-06-04T14:53:08.000Z</time>
      </trkpt>
      <trkpt lat="45.80854" lon="5.7976">
        <ele>404</ele>
        <time>2019-06-04T14:53:09.000Z</time>
      </trkpt>
      <trkpt lat="45.80855" lon="5.7976">
        <ele>404</ele>
        <time>2019-06-04T14:53:10.000Z</time>
      </trkpt>
      <trkpt lat="45.80856" lon="5.79757">
        <ele>403.79998779297</ele>
        <time>2019-06-04T14:53:19.000Z</time>
      </trkpt>
      <trkpt lat="45.80855" lon="5.79757">
        <ele>403.60000610352</ele>
        <time>2019-06-04T14:53:25.000Z</time>
      </trkpt>
      <trkpt lat="45.80855" lon="5.79757">
        <ele>403.60000610352</ele>
        <time>2019-06-04T14:53:37.000Z</time>
      </trkpt>
      <trkpt lat="45.80855" lon="5.79757">
        <ele>403.60000610352</ele>
        <time>2019-06-04T14:53:38.000Z</time>
      </trkpt>
      <trkpt lat="45.80855" lon="5.79757">
        <ele>403.60000610352</ele>
        <time>2019-06-04T14:53:39.000Z</time>
      </trkpt>
      <trkpt lat="45.80851" lon="5.7976">
        <ele>404.20001220703</ele>
        <time>2019-06-04T14:54:13.000Z</time>
      </trkpt>
      <trkpt lat="45.80849" lon="5.79759">
        <ele>404</ele>
        <time>2019-06-04T14:54:30.000Z</time>
      </trkpt>
      <trkpt lat="45.80849" lon="5.79758">
        <ele>404</ele>
        <time>2019-06-04T14:54:32.000Z</time>
      </trkpt>
      <trkpt lat="45.80849" lon="5.79758">
        <ele>404</ele>
        <time>2019-06-04T14:54:33.000Z</time>
      </trkpt>
      <trkpt lat="45.80849" lon="5.79758">
        <ele>404</ele>
        <time>2019-06-04T14:54:35.000Z</time>
      </trkpt>
      <trkpt lat="45.80849" lon="5.79758">
        <ele>403.79998779297</ele>
        <time>2019-06-04T14:54:37.000Z</time>
      </trkpt>
      <trkpt lat="45.80853" lon="5.79761">
        <ele>403.79998779297</ele>
        <time>2019-06-04T14:55:09.000Z</time>
      </trkpt>
      <trkpt lat="45.80855" lon="5.79766">
        <ele>403.79998779297</ele>
        <time>2019-06-04T14:55:24.000Z</time>
      </trkpt>
      <trkpt lat="45.80855" lon="5.79767">
        <ele>403.79998779297</ele>
        <time>2019-06-04T14:55:26.000Z</time>
      </trkpt>
      <trkpt lat="45.80855" lon="5.79767">
        <ele>403.79998779297</ele>
        <time>2019-06-04T14:55:27.000Z</time>
      </trkpt>
      <trkpt lat="45.80855" lon="5.79764">
        <ele>403.79998779297</ele>
        <time>2019-06-04T14:56:05.000Z</time>
      </trkpt>
      <trkpt lat="45.80855" lon="5.79764">
        <ele>403.79998779297</ele>
        <time>2019-06-04T14:56:08.000Z</time>
      </trkpt>
      <trkpt lat="45.80855" lon="5.79764">
        <ele>403.79998779297</ele>
        <time>2019-06-04T14:56:12.000Z</time>
      </trkpt>
      <trkpt lat="45.80855" lon="5.79764">
        <ele>403.79998779297</ele>
        <time>2019-06-04T14:56:14.000Z</time>
      </trkpt>
      <trkpt lat="45.80855" lon="5.79764">
        <ele>403.79998779297</ele>
        <time>2019-06-04T14:56:17.000Z</time>
      </trkpt>
      <trkpt lat="45.80855" lon="5.79764">
        <ele>403.79998779297</ele>
        <time>2019-06-04T14:56:21.000Z</time>
      </trkpt>
      <trkpt lat="45.80855" lon="5.79764">
        <ele>403.79998779297</ele>
        <time>2019-06-04T14:56:26.000Z</time>
      </trkpt>
      <trkpt lat="45.80855" lon="5.79764">
        <ele>403.79998779297</ele>
        <time>2019-06-04T14:56:39.000Z</time>
      </trkpt>
      <trkpt lat="45.80855" lon="5.79764">
        <ele>403.79998779297</ele>
        <time>2019-06-04T14:56:57.000Z</time>
      </trkpt>
      <trkpt lat="45.80855" lon="5.79764">
        <ele>403.79998779297</ele>
        <time>2019-06-04T14:57:14.000Z</time>
      </trkpt>
      <trkpt lat="45.80854" lon="5.7976">
        <ele>403.79998779297</ele>
        <time>2019-06-04T14:57:29.000Z</time>
      </trkpt>
      <trkpt lat="45.80854" lon="5.7976">
        <ele>403.79998779297</ele>
        <time>2019-06-04T14:57:45.000Z</time>
      </trkpt>
      <trkpt lat="45.80854" lon="5.79759">
        <ele>403.79998779297</ele>
        <time>2019-06-04T14:57:53.000Z</time>
      </trkpt>
      <trkpt lat="45.80853" lon="5.79759">
        <ele>403.79998779297</ele>
        <time>2019-06-04T14:58:13.000Z</time>
      </trkpt>
      <trkpt lat="45.80851" lon="5.79759">
        <ele>403.79998779297</ele>
        <time>2019-06-04T14:58:40.000Z</time>
      </trkpt>
      <trkpt lat="45.80852" lon="5.79759">
        <ele>403.79998779297</ele>
        <time>2019-06-04T14:58:46.000Z</time>
      </trkpt>
      <trkpt lat="45.80851" lon="5.79759">
        <ele>403.79998779297</ele>
        <time>2019-06-04T14:58:48.000Z</time>
      </trkpt>
      <trkpt lat="45.80851" lon="5.79759">
        <ele>403.79998779297</ele>
        <time>2019-06-04T14:58:49.000Z</time>
      </trkpt>
      <trkpt lat="45.80849" lon="5.7976">
        <ele>403.79998779297</ele>
        <time>2019-06-04T14:59:21.000Z</time>
      </trkpt>
      <trkpt lat="45.8085" lon="5.79759">
        <ele>403.79998779297</ele>
        <time>2019-06-04T14:59:46.000Z</time>
      </trkpt>
      <trkpt lat="45.80851" lon="5.79759">
        <ele>403.79998779297</ele>
        <time>2019-06-04T15:00:17.000Z</time>
      </trkpt>
      <trkpt lat="45.80851" lon="5.79759">
        <ele>403.79998779297</ele>
        <time>2019-06-04T15:00:25.000Z</time>
      </trkpt>
      <trkpt lat="45.80851" lon="5.79759">
        <ele>403.79998779297</ele>
        <time>2019-06-04T15:00:46.000Z</time>
      </trkpt>
      <trkpt lat="45.80851" lon="5.79757">
        <ele>403.79998779297</ele>
        <time>2019-06-04T15:01:19.000Z</time>
      </trkpt>
      <trkpt lat="45.80851" lon="5.79758">
        <ele>403.79998779297</ele>
        <time>2019-06-04T15:01:58.000Z</time>
      </trkpt>
      <trkpt lat="45.80851" lon="5.79758">
        <ele>403.79998779297</ele>
        <time>2019-06-04T15:02:01.000Z</time>
      </trkpt>
      <trkpt lat="45.80851" lon="5.79758">
        <ele>403.79998779297</ele>
        <time>2019-06-04T15:02:02.000Z</time>
      </trkpt>
      <trkpt lat="45.80851" lon="5.79758">
        <ele>403.79998779297</ele>
        <time>2019-06-04T15:02:03.000Z</time>
      </trkpt>
      <trkpt lat="45.80851" lon="5.79758">
        <ele>403.79998779297</ele>
        <time>2019-06-04T15:02:07.000Z</time>
      </trkpt>
      <trkpt lat="45.80851" lon="5.79758">
        <ele>403.79998779297</ele>
        <time>2019-06-04T15:02:08.000Z</time>
      </trkpt>
      <trkpt lat="45.8085" lon="5.79757">
        <ele>403.79998779297</ele>
        <time>2019-06-04T15:02:27.000Z</time>
      </trkpt>
      <trkpt lat="45.8085" lon="5.79757">
        <ele>403.79998779297</ele>
        <time>2019-06-04T15:02:28.000Z</time>
      </trkpt>
      <trkpt lat="45.80849" lon="5.79757">
        <ele>403.79998779297</ele>
        <time>2019-06-04T15:02:42.000Z</time>
      </trkpt>
      <trkpt lat="45.80849" lon="5.79757">
        <ele>403.79998779297</ele>
        <time>2019-06-04T15:02:45.000Z</time>
      </trkpt>
      <trkpt lat="45.80849" lon="5.79758">
        <ele>403.79998779297</ele>
        <time>2019-06-04T15:03:22.000Z</time>
      </trkpt>
      <trkpt lat="45.80851" lon="5.79757">
        <ele>403.79998779297</ele>
        <time>2019-06-04T15:03:48.000Z</time>
      </trkpt>
      <trkpt lat="45.80851" lon="5.79756">
        <ele>403.79998779297</ele>
        <time>2019-06-04T15:04:10.000Z</time>
      </trkpt>
      <trkpt lat="45.80851" lon="5.79756">
        <ele>403.79998779297</ele>
        <time>2019-06-04T15:04:12.000Z</time>
      </trkpt>
      <trkpt lat="45.80851" lon="5.79756">
        <ele>403.79998779297</ele>
        <time>2019-06-04T15:04:17.000Z</time>
      </trkpt>
      <trkpt lat="45.80851" lon="5.79756">
        <ele>403.79998779297</ele>
        <time>2019-06-04T15:04:19.000Z</time>
      </trkpt>
      <trkpt lat="45.80851" lon="5.79756">
        <ele>403.79998779297</ele>
        <time>2019-06-04T15:04:21.000Z</time>
      </trkpt>
      <trkpt lat="45.80851" lon="5.79756">
        <ele>403.79998779297</ele>
        <time>2019-06-04T15:04:22.000Z</time>
      </trkpt>
      <trkpt lat="45.80851" lon="5.79756">
        <ele>403.79998779297</ele>
        <time>2019-06-04T15:04:23.000Z</time>
      </trkpt>
      <trkpt lat="45.80851" lon="5.79757">
        <ele>403.79998779297</ele>
        <time>2019-06-04T15:04:27.000Z</time>
      </trkpt>
      <trkpt lat="45.80851" lon="5.79757">
        <ele>403.79998779297</ele>
        <time>2019-06-04T15:04:34.000Z</time>
      </trkpt>
      <trkpt lat="45.80851" lon="5.79757">
        <ele>403.79998779297</ele>
        <time>2019-06-04T15:04:36.000Z</time>
      </trkpt>
      <trkpt lat="45.8085" lon="5.79757">
        <ele>403.79998779297</ele>
        <time>2019-06-04T15:04:38.000Z</time>
      </trkpt>
      <trkpt lat="45.8085" lon="5.79757">
        <ele>403.79998779297</ele>
        <time>2019-06-04T15:04:43.000Z</time>
      </trkpt>
      <trkpt lat="45.8085" lon="5.79757">
        <ele>403.79998779297</ele>
        <time>2019-06-04T15:04:44.000Z</time>
      </trkpt>
      <trkpt lat="45.8085" lon="5.79757">
        <ele>403.79998779297</ele>
        <time>2019-06-04T15:04:45.000Z</time>
      </trkpt>
      <trkpt lat="45.8085" lon="5.79757">
        <ele>403.79998779297</ele>
        <time>2019-06-04T15:04:50.000Z</time>
      </trkpt>
      <trkpt lat="45.8085" lon="5.79757">
        <ele>403.79998779297</ele>
        <time>2019-06-04T15:04:51.000Z</time>
      </trkpt>
      <trkpt lat="45.8085" lon="5.79757">
        <ele>403.79998779297</ele>
        <time>2019-06-04T15:05:01.000Z</time>
      </trkpt>
      <trkpt lat="45.8085" lon="5.79757">
        <ele>403.79998779297</ele>
        <time>2019-06-04T15:05:08.000Z</time>
      </trkpt>
      <trkpt lat="45.8085" lon="5.79757">
        <ele>403.79998779297</ele>
        <time>2019-06-04T15:05:09.000Z</time>
      </trkpt>
      <trkpt lat="45.8085" lon="5.79757">
        <ele>403.79998779297</ele>
        <time>2019-06-04T15:05:11.000Z</time>
      </trkpt>
      <trkpt lat="45.8085" lon="5.79757">
        <ele>403.79998779297</ele>
        <time>2019-06-04T15:05:12.000Z</time>
      </trkpt>
      <trkpt lat="45.8085" lon="5.79757">
        <ele>403.79998779297</ele>
        <time>2019-06-04T15:05:13.000Z</time>
      </trkpt>
      <trkpt lat="45.8085" lon="5.79757">
        <ele>403.79998779297</ele>
        <time>2019-06-04T15:05:15.000Z</time>
      </trkpt>
      <trkpt lat="45.80851" lon="5.79758">
        <ele>403.79998779297</ele>
        <time>2019-06-04T15:06:59.000Z</time>
      </trkpt>
      <trkpt lat="45.80851" lon="5.79758">
        <ele>403.79998779297</ele>
        <time>2019-06-04T15:07:01.000Z</time>
      </trkpt>
      <trkpt lat="45.80851" lon="5.79758">
        <ele>403.79998779297</ele>
        <time>2019-06-04T15:07:15.000Z</time>
      </trkpt>
      <trkpt lat="45.80851" lon="5.7976">
        <ele>403.79998779297</ele>
        <time>2019-06-04T15:07:32.000Z</time>
      </trkpt>
      <trkpt lat="45.80851" lon="5.79762">
        <ele>403.79998779297</ele>
        <time>2019-06-04T15:07:50.000Z</time>
      </trkpt>
      <trkpt lat="45.80852" lon="5.79761">
        <ele>403.79998779297</ele>
        <time>2019-06-04T15:08:09.000Z</time>
      </trkpt>
      <trkpt lat="45.8085" lon="5.79756">
        <ele>403.79998779297</ele>
        <time>2019-06-04T15:10:37.000Z</time>
      </trkpt>
      <trkpt lat="45.8085" lon="5.79755">
        <ele>403.79998779297</ele>
        <time>2019-06-04T15:10:42.000Z</time>
      </trkpt>
      <trkpt lat="45.8085" lon="5.79755">
        <ele>403.79998779297</ele>
        <time>2019-06-04T15:10:43.000Z</time>
      </trkpt>
      <trkpt lat="45.80851" lon="5.79755">
        <ele>403.79998779297</ele>
        <time>2019-06-04T15:10:55.000Z</time>
      </trkpt>
      <trkpt lat="45.80851" lon="5.79755">
        <ele>403.79998779297</ele>
        <time>2019-06-04T15:10:57.000Z</time>
      </trkpt>
      <trkpt lat="45.80851" lon="5.79755">
        <ele>403.79998779297</ele>
        <time>2019-06-04T15:11:02.000Z</time>
      </trkpt>
      <trkpt lat="45.80852" lon="5.79757">
        <ele>403.79998779297</ele>
        <time>2019-06-04T15:11:41.000Z</time>
      </trkpt>
      <trkpt lat="45.80852" lon="5.79757">
        <ele>403.79998779297</ele>
        <time>2019-06-04T15:11:44.000Z</time>
      </trkpt>
      <trkpt lat="45.80852" lon="5.79757">
        <ele>403.79998779297</ele>
        <time>2019-06-04T15:11:45.000Z</time>
      </trkpt>
      <trkpt lat="45.80852" lon="5.79757">
        <ele>403.79998779297</ele>
        <time>2019-06-04T15:11:46.000Z</time>
      </trkpt>
      <trkpt lat="45.80852" lon="5.79757">
        <ele>403.79998779297</ele>
        <time>2019-06-04T15:11:47.000Z</time>
      </trkpt>
      <trkpt lat="45.80852" lon="5.79757">
        <ele>403.79998779297</ele>
        <time>2019-06-04T15:11:49.000Z</time>
      </trkpt>
      <trkpt lat="45.80852" lon="5.79757">
        <ele>403.79998779297</ele>
        <time>2019-06-04T15:11:51.000Z</time>
      </trkpt>
      <trkpt lat="45.80852" lon="5.79757">
        <ele>403.79998779297</ele>
        <time>2019-06-04T15:11:55.000Z</time>
      </trkpt>
      <trkpt lat="45.80852" lon="5.79756">
        <ele>403.79998779297</ele>
        <time>2019-06-04T15:12:00.000Z</time>
      </trkpt>
      <trkpt lat="45.80852" lon="5.79756">
        <ele>403.79998779297</ele>
        <time>2019-06-04T15:12:02.000Z</time>
      </trkpt>
      <trkpt lat="45.80852" lon="5.79757">
        <ele>403.79998779297</ele>
        <time>2019-06-04T15:12:03.000Z</time>
      </trkpt>
      <trkpt lat="45.80851" lon="5.79757">
        <ele>403.79998779297</ele>
        <time>2019-06-04T15:12:23.000Z</time>
      </trkpt>
      <trkpt lat="45.80851" lon="5.79757">
        <ele>403.79998779297</ele>
        <time>2019-06-04T15:12:28.000Z</time>
      </trkpt>
      <trkpt lat="45.80851" lon="5.79757">
        <ele>403.79998779297</ele>
        <time>2019-06-04T15:12:30.000Z</time>
      </trkpt>
      <trkpt lat="45.80851" lon="5.79757">
        <ele>403.79998779297</ele>
        <time>2019-06-04T15:12:33.000Z</time>
      </trkpt>
      <trkpt lat="45.8085" lon="5.79762">
        <ele>403.79998779297</ele>
        <time>2019-06-04T15:13:02.000Z</time>
      </trkpt>
      <trkpt lat="45.80851" lon="5.79762">
        <ele>407.39999389648</ele>
        <time>2019-06-04T15:13:06.000Z</time>
      </trkpt>
      <trkpt lat="45.80851" lon="5.79764">
        <ele>406.39999389648</ele>
        <time>2019-06-04T15:13:12.000Z</time>
      </trkpt>
      <trkpt lat="45.8085" lon="5.79767">
        <ele>407</ele>
        <time>2019-06-04T15:13:19.000Z</time>
      </trkpt>
      <trkpt lat="45.80849" lon="5.79769">
        <ele>407.39999389648</ele>
        <time>2019-06-04T15:13:22.000Z</time>
      </trkpt>
      <trkpt lat="45.80845" lon="5.79781">
        <ele>407</ele>
        <time>2019-06-04T15:13:36.000Z</time>
      </trkpt>
      <trkpt lat="45.8084" lon="5.79789">
        <ele>407</ele>
        <time>2019-06-04T15:13:47.000Z</time>
      </trkpt>
      <trkpt lat="45.80836" lon="5.79796">
        <ele>408.39999389648</ele>
        <time>2019-06-04T15:13:55.000Z</time>
      </trkpt>
      <trkpt lat="45.80823" lon="5.79804">
        <ele>407.60000610352</ele>
        <time>2019-06-04T15:14:18.000Z</time>
      </trkpt>
      <trkpt lat="45.8082" lon="5.79806">
        <ele>407.60000610352</ele>
        <time>2019-06-04T15:14:23.000Z</time>
      </trkpt>
      <trkpt lat="45.80802" lon="5.79814">
        <ele>407.60000610352</ele>
        <time>2019-06-04T15:14:46.000Z</time>
      </trkpt>
      <trkpt lat="45.80796" lon="5.7982">
        <ele>407.60000610352</ele>
        <time>2019-06-04T15:14:55.000Z</time>
      </trkpt>
      <trkpt lat="45.8079" lon="5.79825">
        <ele>407.60000610352</ele>
        <time>2019-06-04T15:15:04.000Z</time>
      </trkpt>
      <trkpt lat="45.80786" lon="5.79825">
        <ele>407.60000610352</ele>
        <time>2019-06-04T15:15:10.000Z</time>
      </trkpt>
      <trkpt lat="45.80785" lon="5.79825">
        <ele>407.60000610352</ele>
        <time>2019-06-04T15:15:11.000Z</time>
      </trkpt>
      <trkpt lat="45.80784" lon="5.79825">
        <ele>407.60000610352</ele>
        <time>2019-06-04T15:15:13.000Z</time>
      </trkpt>
      <trkpt lat="45.80783" lon="5.79825">
        <ele>407.60000610352</ele>
        <time>2019-06-04T15:15:14.000Z</time>
      </trkpt>
      <trkpt lat="45.80783" lon="5.79826">
        <ele>407.60000610352</ele>
        <time>2019-06-04T15:15:15.000Z</time>
      </trkpt>
      <trkpt lat="45.80781" lon="5.79825">
        <ele>407.60000610352</ele>
        <time>2019-06-04T15:15:18.000Z</time>
      </trkpt>
      <trkpt lat="45.80769" lon="5.79821">
        <ele>407.60000610352</ele>
        <time>2019-06-04T15:15:29.000Z</time>
      </trkpt>
      <trkpt lat="45.80768" lon="5.7982">
        <ele>407.60000610352</ele>
        <time>2019-06-04T15:15:30.000Z</time>
      </trkpt>
      <trkpt lat="45.80765" lon="5.7982">
        <ele>407.60000610352</ele>
        <time>2019-06-04T15:15:32.000Z</time>
      </trkpt>
      <trkpt lat="45.80762" lon="5.7982">
        <ele>407.60000610352</ele>
        <time>2019-06-04T15:15:35.000Z</time>
      </trkpt>
      <trkpt lat="45.80761" lon="5.7982">
        <ele>407.60000610352</ele>
        <time>2019-06-04T15:15:36.000Z</time>
      </trkpt>
      <trkpt lat="45.8076" lon="5.7982">
        <ele>407.60000610352</ele>
        <time>2019-06-04T15:15:37.000Z</time>
      </trkpt>
      <trkpt lat="45.80759" lon="5.79819">
        <ele>407.60000610352</ele>
        <time>2019-06-04T15:15:38.000Z</time>
      </trkpt>
      <trkpt lat="45.80758" lon="5.79819">
        <ele>407.60000610352</ele>
        <time>2019-06-04T15:15:39.000Z</time>
      </trkpt>
      <trkpt lat="45.80757" lon="5.79819">
        <ele>407.60000610352</ele>
        <time>2019-06-04T15:15:40.000Z</time>
      </trkpt>
      <trkpt lat="45.80749" lon="5.79817">
        <ele>407.60000610352</ele>
        <time>2019-06-04T15:15:49.000Z</time>
      </trkpt>
      <trkpt lat="45.80742" lon="5.79812">
        <ele>407.60000610352</ele>
        <time>2019-06-04T15:16:05.000Z</time>
      </trkpt>
      <trkpt lat="45.80739" lon="5.79811">
        <ele>412.60000610352</ele>
        <time>2019-06-04T15:16:09.000Z</time>
      </trkpt>
      <trkpt lat="45.80737" lon="5.79811">
        <ele>412</ele>
        <time>2019-06-04T15:16:12.000Z</time>
      </trkpt>
      <trkpt lat="45.80721" lon="5.79809">
        <ele>413.79998779297</ele>
        <time>2019-06-04T15:16:41.000Z</time>
      </trkpt>
      <trkpt lat="45.80712" lon="5.79806">
        <ele>414.79998779297</ele>
        <time>2019-06-04T15:16:54.000Z</time>
      </trkpt>
      <trkpt lat="45.80709" lon="5.79805">
        <ele>415.79998779297</ele>
        <time>2019-06-04T15:17:00.000Z</time>
      </trkpt>
      <trkpt lat="45.80701" lon="5.79803">
        <ele>417</ele>
        <time>2019-06-04T15:17:15.000Z</time>
      </trkpt>
      <trkpt lat="45.80697" lon="5.79801">
        <ele>417.60000610352</ele>
        <time>2019-06-04T15:17:20.000Z</time>
      </trkpt>
      <trkpt lat="45.80695" lon="5.798">
        <ele>418.20001220703</ele>
        <time>2019-06-04T15:17:23.000Z</time>
      </trkpt>
      <trkpt lat="45.80678" lon="5.79798">
        <ele>418.79998779297</ele>
        <time>2019-06-04T15:17:46.000Z</time>
      </trkpt>
      <trkpt lat="45.80673" lon="5.79808">
        <ele>418.79998779297</ele>
        <time>2019-06-04T15:18:02.000Z</time>
      </trkpt>
      <trkpt lat="45.80669" lon="5.79832">
        <ele>418.60000610352</ele>
        <time>2019-06-04T15:18:28.000Z</time>
      </trkpt>
      <trkpt lat="45.80667" lon="5.7984">
        <ele>418.20001220703</ele>
        <time>2019-06-04T15:18:35.000Z</time>
      </trkpt>
      <trkpt lat="45.80661" lon="5.79862">
        <ele>417.20001220703</ele>
        <time>2019-06-04T15:18:53.000Z</time>
      </trkpt>
      <trkpt lat="45.80651" lon="5.79874">
        <ele>416.20001220703</ele>
        <time>2019-06-04T15:19:06.000Z</time>
      </trkpt>
      <trkpt lat="45.80645" lon="5.79878">
        <ele>415.60000610352</ele>
        <time>2019-06-04T15:19:12.000Z</time>
      </trkpt>
      <trkpt lat="45.80638" lon="5.79882">
        <ele>415</ele>
        <time>2019-06-04T15:19:18.000Z</time>
      </trkpt>
      <trkpt lat="45.8062" lon="5.79888">
        <ele>414.20001220703</ele>
        <time>2019-06-04T15:19:34.000Z</time>
      </trkpt>
      <trkpt lat="45.80617" lon="5.79889">
        <ele>414</ele>
        <time>2019-06-04T15:19:36.000Z</time>
      </trkpt>
      <trkpt lat="45.80601" lon="5.79897">
        <ele>414</ele>
        <time>2019-06-04T15:19:54.000Z</time>
      </trkpt>
      <trkpt lat="45.80587" lon="5.79902">
        <ele>414.79998779297</ele>
        <time>2019-06-04T15:20:10.000Z</time>
      </trkpt>
      <trkpt lat="45.80581" lon="5.79908">
        <ele>415.20001220703</ele>
        <time>2019-06-04T15:20:20.000Z</time>
      </trkpt>
      <trkpt lat="45.80566" lon="5.79907">
        <ele>414</ele>
        <time>2019-06-04T15:20:49.000Z</time>
      </trkpt>
      <trkpt lat="45.80558" lon="5.79909">
        <ele>413</ele>
        <time>2019-06-04T15:21:06.000Z</time>
      </trkpt>
      <trkpt lat="45.80549" lon="5.79912">
        <ele>412</ele>
        <time>2019-06-04T15:21:27.000Z</time>
      </trkpt>
      <trkpt lat="45.8054" lon="5.79913">
        <ele>411</ele>
        <time>2019-06-04T15:21:38.000Z</time>
      </trkpt>
      <trkpt lat="45.80534" lon="5.79912">
        <ele>410</ele>
        <time>2019-06-04T15:21:47.000Z</time>
      </trkpt>
      <trkpt lat="45.80533" lon="5.79912">
        <ele>409.79998779297</ele>
        <time>2019-06-04T15:21:48.000Z</time>
      </trkpt>
      <trkpt lat="45.80528" lon="5.79909">
        <ele>409.39999389648</ele>
        <time>2019-06-04T15:22:12.000Z</time>
      </trkpt>
      <trkpt lat="45.80526" lon="5.79909">
        <ele>409</ele>
        <time>2019-06-04T15:22:16.000Z</time>
      </trkpt>
      <trkpt lat="45.80525" lon="5.79909">
        <ele>408.79998779297</ele>
        <time>2019-06-04T15:22:17.000Z</time>
      </trkpt>
      <trkpt lat="45.80514" lon="5.79915">
        <ele>407.60000610352</ele>
        <time>2019-06-04T15:22:31.000Z</time>
      </trkpt>
      <trkpt lat="45.80507" lon="5.79917">
        <ele>407</ele>
        <time>2019-06-04T15:22:39.000Z</time>
      </trkpt>
      <trkpt lat="45.80504" lon="5.79917">
        <ele>406.79998779297</ele>
        <time>2019-06-04T15:22:43.000Z</time>
      </trkpt>
      <trkpt lat="45.80503" lon="5.79917">
        <ele>406.60000610352</ele>
        <time>2019-06-04T15:22:44.000Z</time>
      </trkpt>
      <trkpt lat="45.805" lon="5.79915">
        <ele>406.60000610352</ele>
        <time>2019-06-04T15:22:47.000Z</time>
      </trkpt>
      <trkpt lat="45.80498" lon="5.79914">
        <ele>406.20001220703</ele>
        <time>2019-06-04T15:22:49.000Z</time>
      </trkpt>
      <trkpt lat="45.80498" lon="5.79914">
        <ele>406.20001220703</ele>
        <time>2019-06-04T15:22:50.000Z</time>
      </trkpt>
      <trkpt lat="45.80493" lon="5.79915">
        <ele>405.60000610352</ele>
        <time>2019-06-04T15:22:56.000Z</time>
      </trkpt>
      <trkpt lat="45.80489" lon="5.79916">
        <ele>405.39999389648</ele>
        <time>2019-06-04T15:23:00.000Z</time>
      </trkpt>
      <trkpt lat="45.80489" lon="5.79917">
        <ele>405.39999389648</ele>
        <time>2019-06-04T15:23:01.000Z</time>
      </trkpt>
      <trkpt lat="45.80488" lon="5.79917">
        <ele>405.39999389648</ele>
        <time>2019-06-04T15:23:02.000Z</time>
      </trkpt>
      <trkpt lat="45.80487" lon="5.79916">
        <ele>405.39999389648</ele>
        <time>2019-06-04T15:23:03.000Z</time>
      </trkpt>
      <trkpt lat="45.80486" lon="5.79916">
        <ele>405.39999389648</ele>
        <time>2019-06-04T15:23:04.000Z</time>
      </trkpt>
      <trkpt lat="45.80483" lon="5.79915">
        <ele>405.39999389648</ele>
        <time>2019-06-04T15:23:08.000Z</time>
      </trkpt>
      <trkpt lat="45.80467" lon="5.79907">
        <ele>404.60000610352</ele>
        <time>2019-06-04T15:23:28.000Z</time>
      </trkpt>
      <trkpt lat="45.80461" lon="5.79902">
        <ele>404.39999389648</ele>
        <time>2019-06-04T15:23:35.000Z</time>
      </trkpt>
      <trkpt lat="45.80448" lon="5.79897">
        <ele>404.60000610352</ele>
        <time>2019-06-04T15:23:49.000Z</time>
      </trkpt>
      <trkpt lat="45.8043" lon="5.79894">
        <ele>405.60000610352</ele>
        <time>2019-06-04T15:24:15.000Z</time>
      </trkpt>
      <trkpt lat="45.80429" lon="5.79894">
        <ele>405.60000610352</ele>
        <time>2019-06-04T15:24:17.000Z</time>
      </trkpt>
      <trkpt lat="45.80411" lon="5.79891">
        <ele>406</ele>
        <time>2019-06-04T15:24:36.000Z</time>
      </trkpt>
      <trkpt lat="45.80398" lon="5.7989">
        <ele>406.60000610352</ele>
        <time>2019-06-04T15:24:47.000Z</time>
      </trkpt>
      <trkpt lat="45.80388" lon="5.79887">
        <ele>407.39999389648</ele>
        <time>2019-06-04T15:24:58.000Z</time>
      </trkpt>
      <trkpt lat="45.80386" lon="5.79886">
        <ele>407.60000610352</ele>
        <time>2019-06-04T15:25:00.000Z</time>
      </trkpt>
      <trkpt lat="45.80376" lon="5.7988">
        <ele>408.20001220703</ele>
        <time>2019-06-04T15:25:14.000Z</time>
      </trkpt>
      <trkpt lat="45.8037" lon="5.79878">
        <ele>408.60000610352</ele>
        <time>2019-06-04T15:25:23.000Z</time>
      </trkpt>
      <trkpt lat="45.80351" lon="5.79876">
        <ele>408.79998779297</ele>
        <time>2019-06-04T15:25:44.000Z</time>
      </trkpt>
      <trkpt lat="45.80349" lon="5.79876">
        <ele>408.39999389648</ele>
        <time>2019-06-04T15:25:47.000Z</time>
      </trkpt>
      <trkpt lat="45.80342" lon="5.79874">
        <ele>407.60000610352</ele>
        <time>2019-06-04T15:25:55.000Z</time>
      </trkpt>
      <trkpt lat="45.80331" lon="5.79872">
        <ele>406.39999389648</ele>
        <time>2019-06-04T15:26:10.000Z</time>
      </trkpt>
      <trkpt lat="45.80324" lon="5.79874">
        <ele>405.39999389648</ele>
        <time>2019-06-04T15:26:20.000Z</time>
      </trkpt>
      <trkpt lat="45.80317" lon="5.79877">
        <ele>404.39999389648</ele>
        <time>2019-06-04T15:26:27.000Z</time>
      </trkpt>
      <trkpt lat="45.80311" lon="5.79879">
        <ele>403.39999389648</ele>
        <time>2019-06-04T15:26:36.000Z</time>
      </trkpt>
      <trkpt lat="45.803" lon="5.79887">
        <ele>402</ele>
        <time>2019-06-04T15:26:48.000Z</time>
      </trkpt>
      <trkpt lat="45.80294" lon="5.79889">
        <ele>400.79998779297</ele>
        <time>2019-06-04T15:26:54.000Z</time>
      </trkpt>
      <trkpt lat="45.80284" lon="5.79895">
        <ele>399.79998779297</ele>
        <time>2019-06-04T15:27:04.000Z</time>
      </trkpt>
      <trkpt lat="45.80271" lon="5.79902">
        <ele>398.60000610352</ele>
        <time>2019-06-04T15:27:16.000Z</time>
      </trkpt>
      <trkpt lat="45.80267" lon="5.79905">
        <ele>398.20001220703</ele>
        <time>2019-06-04T15:27:20.000Z</time>
      </trkpt>
      <trkpt lat="45.80265" lon="5.79905">
        <ele>398</ele>
        <time>2019-06-04T15:27:22.000Z</time>
      </trkpt>
      <trkpt lat="45.80261" lon="5.79907">
        <ele>397.60000610352</ele>
        <time>2019-06-04T15:27:27.000Z</time>
      </trkpt>
      <trkpt lat="45.80252" lon="5.79913">
        <ele>396.60000610352</ele>
        <time>2019-06-04T15:27:36.000Z</time>
      </trkpt>
      <trkpt lat="45.80245" lon="5.79914">
        <ele>395.39999389648</ele>
        <time>2019-06-04T15:27:44.000Z</time>
      </trkpt>
      <trkpt lat="45.80233" lon="5.79916">
        <ele>394.39999389648</ele>
        <time>2019-06-04T15:27:55.000Z</time>
      </trkpt>
      <trkpt lat="45.80225" lon="5.79918">
        <ele>393.20001220703</ele>
        <time>2019-06-04T15:28:02.000Z</time>
      </trkpt>
      <trkpt lat="45.80222" lon="5.79918">
        <ele>392.79998779297</ele>
        <time>2019-06-04T15:28:06.000Z</time>
      </trkpt>
      <trkpt lat="45.80214" lon="5.79919">
        <ele>392.20001220703</ele>
        <time>2019-06-04T15:28:14.000Z</time>
      </trkpt>
      <trkpt lat="45.80212" lon="5.79919">
        <ele>392</ele>
        <time>2019-06-04T15:28:16.000Z</time>
      </trkpt>
      <trkpt lat="45.8021" lon="5.79918">
        <ele>391.79998779297</ele>
        <time>2019-06-04T15:28:18.000Z</time>
      </trkpt>
      <trkpt lat="45.80206" lon="5.79918">
        <ele>391.39999389648</ele>
        <time>2019-06-04T15:28:22.000Z</time>
      </trkpt>
      <trkpt lat="45.80205" lon="5.79918">
        <ele>391.20001220703</ele>
        <time>2019-06-04T15:28:23.000Z</time>
      </trkpt>
      <trkpt lat="45.80198" lon="5.79916">
        <ele>390.20001220703</ele>
        <time>2019-06-04T15:28:31.000Z</time>
      </trkpt>
      <trkpt lat="45.80197" lon="5.79916">
        <ele>390.20001220703</ele>
        <time>2019-06-04T15:28:32.000Z</time>
      </trkpt>
      <trkpt lat="45.80192" lon="5.79916">
        <ele>389.60000610352</ele>
        <time>2019-06-04T15:28:37.000Z</time>
      </trkpt>
      <trkpt lat="45.80182" lon="5.79915">
        <ele>389.20001220703</ele>
        <time>2019-06-04T15:28:46.000Z</time>
      </trkpt>
      <trkpt lat="45.80181" lon="5.79915">
        <ele>389.20001220703</ele>
        <time>2019-06-04T15:28:47.000Z</time>
      </trkpt>
      <trkpt lat="45.80163" lon="5.79922">
        <ele>388.20001220703</ele>
        <time>2019-06-04T15:29:06.000Z</time>
      </trkpt>
      <trkpt lat="45.80162" lon="5.79922">
        <ele>388.20001220703</ele>
        <time>2019-06-04T15:29:07.000Z</time>
      </trkpt>
      <trkpt lat="45.80154" lon="5.79932">
        <ele>387</ele>
        <time>2019-06-04T15:29:20.000Z</time>
      </trkpt>
      <trkpt lat="45.8015" lon="5.79931">
        <ele>386.39999389648</ele>
        <time>2019-06-04T15:29:24.000Z</time>
      </trkpt>
      <trkpt lat="45.80146" lon="5.7993">
        <ele>386</ele>
        <time>2019-06-04T15:29:30.000Z</time>
      </trkpt>
      <trkpt lat="45.80141" lon="5.7993">
        <ele>385</ele>
        <time>2019-06-04T15:29:38.000Z</time>
      </trkpt>
      <trkpt lat="45.80138" lon="5.7993">
        <ele>384</ele>
        <time>2019-06-04T15:29:44.000Z</time>
      </trkpt>
      <trkpt lat="45.80137" lon="5.79932">
        <ele>382.79998779297</ele>
        <time>2019-06-04T15:29:48.000Z</time>
      </trkpt>
      <trkpt lat="45.80134" lon="5.79931">
        <ele>381.60000610352</ele>
        <time>2019-06-04T15:29:55.000Z</time>
      </trkpt>
      <trkpt lat="45.80132" lon="5.7993">
        <ele>380.39999389648</ele>
        <time>2019-06-04T15:29:59.000Z</time>
      </trkpt>
      <trkpt lat="45.80125" lon="5.79929">
        <ele>379.39999389648</ele>
        <time>2019-06-04T15:30:08.000Z</time>
      </trkpt>
      <trkpt lat="45.8012" lon="5.79929">
        <ele>378.39999389648</ele>
        <time>2019-06-04T15:30:14.000Z</time>
      </trkpt>
      <trkpt lat="45.80115" lon="5.79927">
        <ele>377.20001220703</ele>
        <time>2019-06-04T15:30:20.000Z</time>
      </trkpt>
      <trkpt lat="45.80113" lon="5.79925">
        <ele>376</ele>
        <time>2019-06-04T15:30:23.000Z</time>
      </trkpt>
      <trkpt lat="45.80104" lon="5.79915">
        <ele>375.20001220703</ele>
        <time>2019-06-04T15:31:13.000Z</time>
      </trkpt>
      <trkpt lat="45.80106" lon="5.79916">
        <ele>375.39999389648</ele>
        <time>2019-06-04T15:31:26.000Z</time>
      </trkpt>
      <trkpt lat="45.80105" lon="5.79912">
        <ele>374.79998779297</ele>
        <time>2019-06-04T15:31:41.000Z</time>
      </trkpt>
      <trkpt lat="45.80103" lon="5.79905">
        <ele>374</ele>
        <time>2019-06-04T15:31:48.000Z</time>
      </trkpt>
      <trkpt lat="45.80104" lon="5.79904">
        <ele>373.60000610352</ele>
        <time>2019-06-04T15:31:49.000Z</time>
      </trkpt>
      <trkpt lat="45.80106" lon="5.79901">
        <ele>372.20001220703</ele>
        <time>2019-06-04T15:31:55.000Z</time>
      </trkpt>
      <trkpt lat="45.80107" lon="5.79898">
        <ele>371.20001220703</ele>
        <time>2019-06-04T15:31:59.000Z</time>
      </trkpt>
      <trkpt lat="45.80107" lon="5.79897">
        <ele>371.20001220703</ele>
        <time>2019-06-04T15:32:00.000Z</time>
      </trkpt>
      <trkpt lat="45.8011" lon="5.79884">
        <ele>370</ele>
        <time>2019-06-04T15:32:10.000Z</time>
      </trkpt>
      <trkpt lat="45.80113" lon="5.79878">
        <ele>368.60000610352</ele>
        <time>2019-06-04T15:32:15.000Z</time>
      </trkpt>
      <trkpt lat="45.80115" lon="5.79873">
        <ele>367.60000610352</ele>
        <time>2019-06-04T15:32:20.000Z</time>
      </trkpt>
      <trkpt lat="45.80116" lon="5.79871">
        <ele>367.39999389648</ele>
        <time>2019-06-04T15:32:22.000Z</time>
      </trkpt>
      <trkpt lat="45.80121" lon="5.79857">
        <ele>366.20001220703</ele>
        <time>2019-06-04T15:32:36.000Z</time>
      </trkpt>
      <trkpt lat="45.80127" lon="5.79849">
        <ele>365.20001220703</ele>
        <time>2019-06-04T15:32:44.000Z</time>
      </trkpt>
      <trkpt lat="45.80133" lon="5.79836">
        <ele>364.20001220703</ele>
        <time>2019-06-04T15:32:55.000Z</time>
      </trkpt>
      <trkpt lat="45.80139" lon="5.79821">
        <ele>363</ele>
        <time>2019-06-04T15:33:06.000Z</time>
      </trkpt>
      <trkpt lat="45.80146" lon="5.79807">
        <ele>362</ele>
        <time>2019-06-04T15:33:19.000Z</time>
      </trkpt>
      <trkpt lat="45.80153" lon="5.79794">
        <ele>360.79998779297</ele>
        <time>2019-06-04T15:33:31.000Z</time>
      </trkpt>
      <trkpt lat="45.80157" lon="5.79782">
        <ele>359.79998779297</ele>
        <time>2019-06-04T15:33:41.000Z</time>
      </trkpt>
      <trkpt lat="45.8016" lon="5.79759">
        <ele>358.79998779297</ele>
        <time>2019-06-04T15:33:56.000Z</time>
      </trkpt>
      <trkpt lat="45.80164" lon="5.79745">
        <ele>357.60000610352</ele>
        <time>2019-06-04T15:34:06.000Z</time>
      </trkpt>
      <trkpt lat="45.80164" lon="5.79738">
        <ele>357.39999389648</ele>
        <time>2019-06-04T15:34:10.000Z</time>
      </trkpt>
      <trkpt lat="45.80163" lon="5.79722">
        <ele>356.39999389648</ele>
        <time>2019-06-04T15:34:19.000Z</time>
      </trkpt>
      <trkpt lat="45.80163" lon="5.79709">
        <ele>355.39999389648</ele>
        <time>2019-06-04T15:34:28.000Z</time>
      </trkpt>
      <trkpt lat="45.80165" lon="5.79708">
        <ele>354.20001220703</ele>
        <time>2019-06-04T15:34:41.000Z</time>
      </trkpt>
      <trkpt lat="45.80165" lon="5.79708">
        <ele>353.20001220703</ele>
        <time>2019-06-04T15:35:07.000Z</time>
      </trkpt>
      <trkpt lat="45.80165" lon="5.79709">
        <ele>353.20001220703</ele>
        <time>2019-06-04T15:35:27.000Z</time>
      </trkpt>
      <trkpt lat="45.80168" lon="5.79701">
        <ele>354.39999389648</ele>
        <time>2019-06-04T15:36:07.000Z</time>
      </trkpt>
      <trkpt lat="45.80169" lon="5.797">
        <ele>354.39999389648</ele>
        <time>2019-06-04T15:36:08.000Z</time>
      </trkpt>
      <trkpt lat="45.80169" lon="5.797">
        <ele>354.39999389648</ele>
        <time>2019-06-04T15:36:09.000Z</time>
      </trkpt>
      <trkpt lat="45.80172" lon="5.79696">
        <ele>354.39999389648</ele>
        <time>2019-06-04T15:36:13.000Z</time>
      </trkpt>
      <trkpt lat="45.80172" lon="5.79695">
        <ele>354.39999389648</ele>
        <time>2019-06-04T15:36:14.000Z</time>
      </trkpt>
      <trkpt lat="45.80173" lon="5.79693">
        <ele>354.79998779297</ele>
        <time>2019-06-04T15:36:16.000Z</time>
      </trkpt>
      <trkpt lat="45.80175" lon="5.79688">
        <ele>355.60000610352</ele>
        <time>2019-06-04T15:36:21.000Z</time>
      </trkpt>
      <trkpt lat="45.80179" lon="5.79682">
        <ele>355.79998779297</ele>
        <time>2019-06-04T15:36:27.000Z</time>
      </trkpt>
      <trkpt lat="45.80182" lon="5.79675">
        <ele>355.20001220703</ele>
        <time>2019-06-04T15:36:33.000Z</time>
      </trkpt>
      <trkpt lat="45.80182" lon="5.79674">
        <ele>355</ele>
        <time>2019-06-04T15:36:34.000Z</time>
      </trkpt>
      <trkpt lat="45.80184" lon="5.79672">
        <ele>355</ele>
        <time>2019-06-04T15:36:36.000Z</time>
      </trkpt>
      <trkpt lat="45.80184" lon="5.79671">
        <ele>354.79998779297</ele>
        <time>2019-06-04T15:36:37.000Z</time>
      </trkpt>
      <trkpt lat="45.80185" lon="5.79669">
        <ele>354.79998779297</ele>
        <time>2019-06-04T15:36:39.000Z</time>
      </trkpt>
      <trkpt lat="45.80186" lon="5.79666">
        <ele>354.60000610352</ele>
        <time>2019-06-04T15:36:41.000Z</time>
      </trkpt>
      <trkpt lat="45.80187" lon="5.79665">
        <ele>354.39999389648</ele>
        <time>2019-06-04T15:36:42.000Z</time>
      </trkpt>
      <trkpt lat="45.80188" lon="5.79662">
        <ele>354.20001220703</ele>
        <time>2019-06-04T15:36:44.000Z</time>
      </trkpt>
      <trkpt lat="45.80189" lon="5.79659">
        <ele>354</ele>
        <time>2019-06-04T15:36:46.000Z</time>
      </trkpt>
      <trkpt lat="45.8019" lon="5.79656">
        <ele>353.60000610352</ele>
        <time>2019-06-04T15:36:48.000Z</time>
      </trkpt>
      <trkpt lat="45.80197" lon="5.79645">
        <ele>353.39999389648</ele>
        <time>2019-06-04T15:36:58.000Z</time>
      </trkpt>
      <trkpt lat="45.80207" lon="5.79628">
        <ele>352.20001220703</ele>
        <time>2019-06-04T15:37:12.000Z</time>
      </trkpt>
      <trkpt lat="45.80219" lon="5.7961">
        <ele>351.20001220703</ele>
        <time>2019-06-04T15:37:29.000Z</time>
      </trkpt>
      <trkpt lat="45.80223" lon="5.79606">
        <ele>351</ele>
        <time>2019-06-04T15:37:33.000Z</time>
      </trkpt>
      <trkpt lat="45.80232" lon="5.79598">
        <ele>350.39999389648</ele>
        <time>2019-06-04T15:37:44.000Z</time>
      </trkpt>
      <trkpt lat="45.80238" lon="5.79591">
        <ele>350</ele>
        <time>2019-06-04T15:37:50.000Z</time>
      </trkpt>
      <trkpt lat="45.80251" lon="5.79579">
        <ele>349</ele>
        <time>2019-06-04T15:38:04.000Z</time>
      </trkpt>
      <trkpt lat="45.80262" lon="5.79574">
        <ele>347.79998779297</ele>
        <time>2019-06-04T15:38:16.000Z</time>
      </trkpt>
      <trkpt lat="45.80276" lon="5.79572">
        <ele>346.60000610352</ele>
        <time>2019-06-04T15:38:32.000Z</time>
      </trkpt>
      <trkpt lat="45.8029" lon="5.79561">
        <ele>346</ele>
        <time>2019-06-04T15:38:49.000Z</time>
      </trkpt>
      <trkpt lat="45.80299" lon="5.79559">
        <ele>345.39999389648</ele>
        <time>2019-06-04T15:38:58.000Z</time>
      </trkpt>
      <trkpt lat="45.80316" lon="5.79553">
        <ele>344.39999389648</ele>
        <time>2019-06-04T15:39:15.000Z</time>
      </trkpt>
      <trkpt lat="45.80317" lon="5.79553">
        <ele>344.20001220703</ele>
        <time>2019-06-04T15:39:16.000Z</time>
      </trkpt>
      <trkpt lat="45.80332" lon="5.79549">
        <ele>343.20001220703</ele>
        <time>2019-06-04T15:39:30.000Z</time>
      </trkpt>
      <trkpt lat="45.8034" lon="5.79544">
        <ele>342.20001220703</ele>
        <time>2019-06-04T15:39:39.000Z</time>
      </trkpt>
      <trkpt lat="45.80345" lon="5.79541">
        <ele>341.20001220703</ele>
        <time>2019-06-04T15:39:44.000Z</time>
      </trkpt>
      <trkpt lat="45.80358" lon="5.79532">
        <ele>340</ele>
        <time>2019-06-04T15:39:57.000Z</time>
      </trkpt>
      <trkpt lat="45.80369" lon="5.79524">
        <ele>338.79998779297</ele>
        <time>2019-06-04T15:40:09.000Z</time>
      </trkpt>
      <trkpt lat="45.80373" lon="5.79521">
        <ele>337.60000610352</ele>
        <time>2019-06-04T15:40:13.000Z</time>
      </trkpt>
      <trkpt lat="45.80379" lon="5.79514">
        <ele>336.60000610352</ele>
        <time>2019-06-04T15:40:19.000Z</time>
      </trkpt>
      <trkpt lat="45.80383" lon="5.79511">
        <ele>335.60000610352</ele>
        <time>2019-06-04T15:40:24.000Z</time>
      </trkpt>
      <trkpt lat="45.80388" lon="5.79503">
        <ele>334.39999389648</ele>
        <time>2019-06-04T15:40:30.000Z</time>
      </trkpt>
      <trkpt lat="45.80392" lon="5.795">
        <ele>333.20001220703</ele>
        <time>2019-06-04T15:40:34.000Z</time>
      </trkpt>
      <trkpt lat="45.804" lon="5.79494">
        <ele>332.20001220703</ele>
        <time>2019-06-04T15:40:42.000Z</time>
      </trkpt>
      <trkpt lat="45.80402" lon="5.79491">
        <ele>331.79998779297</ele>
        <time>2019-06-04T15:40:45.000Z</time>
      </trkpt>
      <trkpt lat="45.80404" lon="5.7949">
        <ele>331.20001220703</ele>
        <time>2019-06-04T15:40:47.000Z</time>
      </trkpt>
      <trkpt lat="45.80405" lon="5.79487">
        <ele>330.20001220703</ele>
        <time>2019-06-04T15:40:53.000Z</time>
      </trkpt>
      <trkpt lat="45.80406" lon="5.79487">
        <ele>330</ele>
        <time>2019-06-04T15:41:09.000Z</time>
      </trkpt>
      <trkpt lat="45.80408" lon="5.79484">
        <ele>329.79998779297</ele>
        <time>2019-06-04T15:41:13.000Z</time>
      </trkpt>
      <trkpt lat="45.80413" lon="5.79477">
        <ele>329.20001220703</ele>
        <time>2019-06-04T15:41:25.000Z</time>
      </trkpt>
      <trkpt lat="45.80416" lon="5.79472">
        <ele>328</ele>
        <time>2019-06-04T15:41:31.000Z</time>
      </trkpt>
      <trkpt lat="45.80424" lon="5.7946">
        <ele>326.79998779297</ele>
        <time>2019-06-04T15:41:40.000Z</time>
      </trkpt>
      <trkpt lat="45.80427" lon="5.79457">
        <ele>325.60000610352</ele>
        <time>2019-06-04T15:41:45.000Z</time>
      </trkpt>
      <trkpt lat="45.80429" lon="5.79449">
        <ele>324.60000610352</ele>
        <time>2019-06-04T15:41:52.000Z</time>
      </trkpt>
      <trkpt lat="45.80434" lon="5.79444">
        <ele>323.60000610352</ele>
        <time>2019-06-04T15:41:59.000Z</time>
      </trkpt>
      <trkpt lat="45.80437" lon="5.79438">
        <ele>322.39999389648</ele>
        <time>2019-06-04T15:42:05.000Z</time>
      </trkpt>
      <trkpt lat="45.80441" lon="5.7943">
        <ele>321.39999389648</ele>
        <time>2019-06-04T15:42:12.000Z</time>
      </trkpt>
      <trkpt lat="45.80441" lon="5.79429">
        <ele>321</ele>
        <time>2019-06-04T15:42:13.000Z</time>
      </trkpt>
      <trkpt lat="45.80442" lon="5.79426">
        <ele>320.39999389648</ele>
        <time>2019-06-04T15:42:15.000Z</time>
      </trkpt>
      <trkpt lat="45.80447" lon="5.79415">
        <ele>319.39999389648</ele>
        <time>2019-06-04T15:42:24.000Z</time>
      </trkpt>
      <trkpt lat="45.8045" lon="5.79407">
        <ele>318.20001220703</ele>
        <time>2019-06-04T15:42:30.000Z</time>
      </trkpt>
      <trkpt lat="45.8045" lon="5.79406">
        <ele>318</ele>
        <time>2019-06-04T15:42:31.000Z</time>
      </trkpt>
      <trkpt lat="45.80451" lon="5.79406">
        <ele>317</ele>
        <time>2019-06-04T15:42:36.000Z</time>
      </trkpt>
      <trkpt lat="45.80454" lon="5.794">
        <ele>316</ele>
        <time>2019-06-04T15:42:46.000Z</time>
      </trkpt>
      <trkpt lat="45.80455" lon="5.79398">
        <ele>316</ele>
        <time>2019-06-04T15:42:47.000Z</time>
      </trkpt>
      <trkpt lat="45.8046" lon="5.79387">
        <ele>314.79998779297</ele>
        <time>2019-06-04T15:42:55.000Z</time>
      </trkpt>
      <trkpt lat="45.8046" lon="5.79385">
        <ele>314.60000610352</ele>
        <time>2019-06-04T15:42:56.000Z</time>
      </trkpt>
      <trkpt lat="45.80461" lon="5.79384">
        <ele>314.39999389648</ele>
        <time>2019-06-04T15:42:57.000Z</time>
      </trkpt>
      <trkpt lat="45.80462" lon="5.79383">
        <ele>314.39999389648</ele>
        <time>2019-06-04T15:42:58.000Z</time>
      </trkpt>
      <trkpt lat="45.80464" lon="5.7938">
        <ele>313.79998779297</ele>
        <time>2019-06-04T15:43:01.000Z</time>
      </trkpt>
      <trkpt lat="45.80465" lon="5.79378">
        <ele>313.60000610352</ele>
        <time>2019-06-04T15:43:02.000Z</time>
      </trkpt>
      <trkpt lat="45.80465" lon="5.79377">
        <ele>313.20001220703</ele>
        <time>2019-06-04T15:43:03.000Z</time>
      </trkpt>
      <trkpt lat="45.80467" lon="5.79375">
        <ele>313</ele>
        <time>2019-06-04T15:43:05.000Z</time>
      </trkpt>
      <trkpt lat="45.80468" lon="5.79374">
        <ele>312.79998779297</ele>
        <time>2019-06-04T15:43:06.000Z</time>
      </trkpt>
      <trkpt lat="45.80469" lon="5.79373">
        <ele>312.60000610352</ele>
        <time>2019-06-04T15:43:07.000Z</time>
      </trkpt>
      <trkpt lat="45.80471" lon="5.79373">
        <ele>311.60000610352</ele>
        <time>2019-06-04T15:43:11.000Z</time>
      </trkpt>
      <trkpt lat="45.80472" lon="5.79369">
        <ele>310.79998779297</ele>
        <time>2019-06-04T15:43:18.000Z</time>
      </trkpt>
      <trkpt lat="45.80474" lon="5.79366">
        <ele>310.60000610352</ele>
        <time>2019-06-04T15:43:21.000Z</time>
      </trkpt>
      <trkpt lat="45.80477" lon="5.79363">
        <ele>310.39999389648</ele>
        <time>2019-06-04T15:43:24.000Z</time>
      </trkpt>
      <trkpt lat="45.80484" lon="5.79354">
        <ele>309.39999389648</ele>
        <time>2019-06-04T15:43:33.000Z</time>
      </trkpt>
      <trkpt lat="45.80492" lon="5.79346">
        <ele>308.39999389648</ele>
        <time>2019-06-04T15:43:42.000Z</time>
      </trkpt>
      <trkpt lat="45.80494" lon="5.79344">
        <ele>308.20001220703</ele>
        <time>2019-06-04T15:43:44.000Z</time>
      </trkpt>
      <trkpt lat="45.80498" lon="5.79341">
        <ele>307.60000610352</ele>
        <time>2019-06-04T15:43:49.000Z</time>
      </trkpt>
      <trkpt lat="45.805" lon="5.79339">
        <ele>307.39999389648</ele>
        <time>2019-06-04T15:43:51.000Z</time>
      </trkpt>
      <trkpt lat="45.80504" lon="5.79334">
        <ele>306.20001220703</ele>
        <time>2019-06-04T15:43:58.000Z</time>
      </trkpt>
      <trkpt lat="45.80508" lon="5.79327">
        <ele>305.60000610352</ele>
        <time>2019-06-04T15:44:23.000Z</time>
      </trkpt>
      <trkpt lat="45.8051" lon="5.79323">
        <ele>305</ele>
        <time>2019-06-04T15:44:29.000Z</time>
      </trkpt>
      <trkpt lat="45.80509" lon="5.79323">
        <ele>304.39999389648</ele>
        <time>2019-06-04T15:44:35.000Z</time>
      </trkpt>
      <trkpt lat="45.80512" lon="5.79314">
        <ele>304</ele>
        <time>2019-06-04T15:44:50.000Z</time>
      </trkpt>
      <trkpt lat="45.80518" lon="5.79312">
        <ele>302.79998779297</ele>
        <time>2019-06-04T15:44:56.000Z</time>
      </trkpt>
      <trkpt lat="45.80521" lon="5.79311">
        <ele>302.39999389648</ele>
        <time>2019-06-04T15:45:02.000Z</time>
      </trkpt>
      <trkpt lat="45.80528" lon="5.79311">
        <ele>301.79998779297</ele>
        <time>2019-06-04T15:45:09.000Z</time>
      </trkpt>
      <trkpt lat="45.80531" lon="5.7931">
        <ele>301.60000610352</ele>
        <time>2019-06-04T15:45:12.000Z</time>
      </trkpt>
      <trkpt lat="45.8054" lon="5.7931">
        <ele>300.79998779297</ele>
        <time>2019-06-04T15:45:22.000Z</time>
      </trkpt>
      <trkpt lat="45.80548" lon="5.79308">
        <ele>299.39999389648</ele>
        <time>2019-06-04T15:45:29.000Z</time>
      </trkpt>
      <trkpt lat="45.80556" lon="5.79307">
        <ele>298.39999389648</ele>
        <time>2019-06-04T15:45:36.000Z</time>
      </trkpt>
      <trkpt lat="45.80565" lon="5.79305">
        <ele>297.20001220703</ele>
        <time>2019-06-04T15:45:44.000Z</time>
      </trkpt>
      <trkpt lat="45.80572" lon="5.79302">
        <ele>296.20001220703</ele>
        <time>2019-06-04T15:45:53.000Z</time>
      </trkpt>
      <trkpt lat="45.80576" lon="5.79295">
        <ele>295.39999389648</ele>
        <time>2019-06-04T15:46:01.000Z</time>
      </trkpt>
      <trkpt lat="45.80578" lon="5.79291">
        <ele>295.20001220703</ele>
        <time>2019-06-04T15:46:05.000Z</time>
      </trkpt>
      <trkpt lat="45.80581" lon="5.79281">
        <ele>294</ele>
        <time>2019-06-04T15:46:13.000Z</time>
      </trkpt>
      <trkpt lat="45.80584" lon="5.79266">
        <ele>292.79998779297</ele>
        <time>2019-06-04T15:46:24.000Z</time>
      </trkpt>
      <trkpt lat="45.80586" lon="5.79242">
        <ele>291.79998779297</ele>
        <time>2019-06-04T15:46:38.000Z</time>
      </trkpt>
      <trkpt lat="45.80588" lon="5.79215">
        <ele>290.79998779297</ele>
        <time>2019-06-04T15:46:54.000Z</time>
      </trkpt>
      <trkpt lat="45.80587" lon="5.79213">
        <ele>290.60000610352</ele>
        <time>2019-06-04T15:46:55.000Z</time>
      </trkpt>
      <trkpt lat="45.80584" lon="5.79187">
        <ele>290.60000610352</ele>
        <time>2019-06-04T15:47:11.000Z</time>
      </trkpt>
      <trkpt lat="45.8058" lon="5.79162">
        <ele>290</ele>
        <time>2019-06-04T15:47:27.000Z</time>
      </trkpt>
      <trkpt lat="45.80579" lon="5.79148">
        <ele>289.60000610352</ele>
        <time>2019-06-04T15:47:35.000Z</time>
      </trkpt>
      <trkpt lat="45.80586" lon="5.7913">
        <ele>288.60000610352</ele>
        <time>2019-06-04T15:47:49.000Z</time>
      </trkpt>
      <trkpt lat="45.80591" lon="5.79127">
        <ele>287.39999389648</ele>
        <time>2019-06-04T15:47:55.000Z</time>
      </trkpt>
      <trkpt lat="45.80597" lon="5.79125">
        <ele>286.60000610352</ele>
        <time>2019-06-04T15:48:00.000Z</time>
      </trkpt>
      <trkpt lat="45.80598" lon="5.79124">
        <ele>286.39999389648</ele>
        <time>2019-06-04T15:48:01.000Z</time>
      </trkpt>
      <trkpt lat="45.80604" lon="5.7912">
        <ele>285.79998779297</ele>
        <time>2019-06-04T15:48:07.000Z</time>
      </trkpt>
      <trkpt lat="45.80611" lon="5.79116">
        <ele>285.20001220703</ele>
        <time>2019-06-04T15:48:14.000Z</time>
      </trkpt>
      <trkpt lat="45.80621" lon="5.79115">
        <ele>284</ele>
        <time>2019-06-04T15:48:24.000Z</time>
      </trkpt>
      <trkpt lat="45.80628" lon="5.79117">
        <ele>282.79998779297</ele>
        <time>2019-06-04T15:48:30.000Z</time>
      </trkpt>
      <trkpt lat="45.80631" lon="5.79116">
        <ele>281.39999389648</ele>
        <time>2019-06-04T15:48:33.000Z</time>
      </trkpt>
      <trkpt lat="45.80635" lon="5.79116">
        <ele>280.39999389648</ele>
        <time>2019-06-04T15:48:37.000Z</time>
      </trkpt>
      <trkpt lat="45.80638" lon="5.79117">
        <ele>279.39999389648</ele>
        <time>2019-06-04T15:48:40.000Z</time>
      </trkpt>
      <trkpt lat="45.80642" lon="5.79119">
        <ele>278.20001220703</ele>
        <time>2019-06-04T15:48:45.000Z</time>
      </trkpt>
      <trkpt lat="45.80647" lon="5.79119">
        <ele>277</ele>
        <time>2019-06-04T15:48:51.000Z</time>
      </trkpt>
      <trkpt lat="45.80651" lon="5.79119">
        <ele>276</ele>
        <time>2019-06-04T15:48:55.000Z</time>
      </trkpt>
      <trkpt lat="45.80658" lon="5.79118">
        <ele>274.79998779297</ele>
        <time>2019-06-04T15:49:04.000Z</time>
      </trkpt>
      <trkpt lat="45.80667" lon="5.79119">
        <ele>273.60000610352</ele>
        <time>2019-06-04T15:49:15.000Z</time>
      </trkpt>
      <trkpt lat="45.80668" lon="5.79123">
        <ele>272.39999389648</ele>
        <time>2019-06-04T15:49:19.000Z</time>
      </trkpt>
      <trkpt lat="45.80667" lon="5.79126">
        <ele>271.20001220703</ele>
        <time>2019-06-04T15:49:22.000Z</time>
      </trkpt>
      <trkpt lat="45.8067" lon="5.79128">
        <ele>270.20001220703</ele>
        <time>2019-06-04T15:49:30.000Z</time>
      </trkpt>
      <trkpt lat="45.80674" lon="5.79123">
        <ele>270.60000610352</ele>
        <time>2019-06-04T15:49:53.000Z</time>
      </trkpt>
      <trkpt lat="45.80676" lon="5.79124">
        <ele>270.39999389648</ele>
        <time>2019-06-04T15:49:56.000Z</time>
      </trkpt>
      <trkpt lat="45.80681" lon="5.79122">
        <ele>269.20001220703</ele>
        <time>2019-06-04T15:50:06.000Z</time>
      </trkpt>
      <trkpt lat="45.80685" lon="5.7912">
        <ele>267.79998779297</ele>
        <time>2019-06-04T15:50:12.000Z</time>
      </trkpt>
      <trkpt lat="45.80686" lon="5.79118">
        <ele>266.79998779297</ele>
        <time>2019-06-04T15:50:16.000Z</time>
      </trkpt>
      <trkpt lat="45.80688" lon="5.79117">
        <ele>265.79998779297</ele>
        <time>2019-06-04T15:50:21.000Z</time>
      </trkpt>
      <trkpt lat="45.80694" lon="5.79118">
        <ele>265</ele>
        <time>2019-06-04T15:50:32.000Z</time>
      </trkpt>
      <trkpt lat="45.80698" lon="5.79121">
        <ele>265.60000610352</ele>
        <time>2019-06-04T15:50:48.000Z</time>
      </trkpt>
      <trkpt lat="45.80698" lon="5.79121">
        <ele>265.60000610352</ele>
        <time>2019-06-04T15:50:50.000Z</time>
      </trkpt>
      <trkpt lat="45.80698" lon="5.79121">
        <ele>265.60000610352</ele>
        <time>2019-06-04T15:50:51.000Z</time>
      </trkpt>
      <trkpt lat="45.80697" lon="5.79121">
        <ele>265.79998779297</ele>
        <time>2019-06-04T15:50:52.000Z</time>
      </trkpt>
      <trkpt lat="45.807" lon="5.7912">
        <ele>265.39999389648</ele>
        <time>2019-06-04T15:51:01.000Z</time>
      </trkpt>
      <trkpt lat="45.807" lon="5.7912">
        <ele>265.39999389648</ele>
        <time>2019-06-04T15:51:02.000Z</time>
      </trkpt>
      <trkpt lat="45.807" lon="5.79121">
        <ele>265.20001220703</ele>
        <time>2019-06-04T15:51:04.000Z</time>
      </trkpt>
      <trkpt lat="45.80701" lon="5.79121">
        <ele>265.20001220703</ele>
        <time>2019-06-04T15:51:05.000Z</time>
      </trkpt>
      <trkpt lat="45.80701" lon="5.7912">
        <ele>265.20001220703</ele>
        <time>2019-06-04T15:51:06.000Z</time>
      </trkpt>
      <trkpt lat="45.80701" lon="5.7912">
        <ele>264.79998779297</ele>
        <time>2019-06-04T15:51:07.000Z</time>
      </trkpt>
      <trkpt lat="45.80702" lon="5.79119">
        <ele>264.79998779297</ele>
        <time>2019-06-04T15:51:08.000Z</time>
      </trkpt>
      <trkpt lat="45.80702" lon="5.79119">
        <ele>264.60000610352</ele>
        <time>2019-06-04T15:51:09.000Z</time>
      </trkpt>
      <trkpt lat="45.80703" lon="5.79119">
        <ele>264.60000610352</ele>
        <time>2019-06-04T15:51:11.000Z</time>
      </trkpt>
      <trkpt lat="45.80702" lon="5.79119">
        <ele>264.39999389648</ele>
        <time>2019-06-04T15:51:13.000Z</time>
      </trkpt>
      <trkpt lat="45.80702" lon="5.79119">
        <ele>264.39999389648</ele>
        <time>2019-06-04T15:51:14.000Z</time>
      </trkpt>
      <trkpt lat="45.807" lon="5.79116">
        <ele>263.60000610352</ele>
        <time>2019-06-04T15:51:27.000Z</time>
      </trkpt>
      <trkpt lat="45.80703" lon="5.79113">
        <ele>262.39999389648</ele>
        <time>2019-06-04T15:51:38.000Z</time>
      </trkpt>
      <trkpt lat="45.80703" lon="5.79113">
        <ele>262.39999389648</ele>
        <time>2019-06-04T15:51:39.000Z</time>
      </trkpt>
      <trkpt lat="45.80718" lon="5.79111">
        <ele>262</ele>
        <time>2019-06-04T15:52:05.000Z</time>
      </trkpt>
      <trkpt lat="45.80719" lon="5.79112">
        <ele>262.39999389648</ele>
        <time>2019-06-04T15:52:18.000Z</time>
      </trkpt>
      <trkpt lat="45.80719" lon="5.7911">
        <ele>262</ele>
        <time>2019-06-04T15:52:23.000Z</time>
      </trkpt>
      <trkpt lat="45.80719" lon="5.7911">
        <ele>261.79998779297</ele>
        <time>2019-06-04T15:52:24.000Z</time>
      </trkpt>
      <trkpt lat="45.80719" lon="5.79109">
        <ele>261.79998779297</ele>
        <time>2019-06-04T15:52:25.000Z</time>
      </trkpt>
      <trkpt lat="45.80718" lon="5.79108">
        <ele>261.79998779297</ele>
        <time>2019-06-04T15:52:26.000Z</time>
      </trkpt>
      <trkpt lat="45.80717" lon="5.79107">
        <ele>261.39999389648</ele>
        <time>2019-06-04T15:52:29.000Z</time>
      </trkpt>
      <trkpt lat="45.80718" lon="5.79105">
        <ele>261</ele>
        <time>2019-06-04T15:52:32.000Z</time>
      </trkpt>
      <trkpt lat="45.80718" lon="5.79104">
        <ele>260.39999389648</ele>
        <time>2019-06-04T15:52:34.000Z</time>
      </trkpt>
      <trkpt lat="45.80718" lon="5.79103">
        <ele>260</ele>
        <time>2019-06-04T15:52:35.000Z</time>
      </trkpt>
      <trkpt lat="45.80719" lon="5.79103">
        <ele>259.60000610352</ele>
        <time>2019-06-04T15:52:37.000Z</time>
      </trkpt>
      <trkpt lat="45.80721" lon="5.79101">
        <ele>259</ele>
        <time>2019-06-04T15:52:42.000Z</time>
      </trkpt>
      <trkpt lat="45.80724" lon="5.79101">
        <ele>257.79998779297</ele>
        <time>2019-06-04T15:52:50.000Z</time>
      </trkpt>
      <trkpt lat="45.80725" lon="5.79101">
        <ele>257.79998779297</ele>
        <time>2019-06-04T15:52:51.000Z</time>
      </trkpt>
      <trkpt lat="45.80725" lon="5.79102">
        <ele>257.39999389648</ele>
        <time>2019-06-04T15:52:56.000Z</time>
      </trkpt>
      <trkpt lat="45.80725" lon="5.79102">
        <ele>257.39999389648</ele>
        <time>2019-06-04T15:52:59.000Z</time>
      </trkpt>
      <trkpt lat="45.80725" lon="5.79102">
        <ele>257.60000610352</ele>
        <time>2019-06-04T15:53:03.000Z</time>
      </trkpt>
      <trkpt lat="45.80725" lon="5.79101">
        <ele>257.79998779297</ele>
        <time>2019-06-04T15:53:08.000Z</time>
      </trkpt>
      <trkpt lat="45.80726" lon="5.79099">
        <ele>257.39999389648</ele>
        <time>2019-06-04T15:53:15.000Z</time>
      </trkpt>
      <trkpt lat="45.80728" lon="5.79097">
        <ele>256.60000610352</ele>
        <time>2019-06-04T15:53:19.000Z</time>
      </trkpt>
      <trkpt lat="45.80731" lon="5.79098">
        <ele>255.60000610352</ele>
        <time>2019-06-04T15:53:25.000Z</time>
      </trkpt>
      <trkpt lat="45.80731" lon="5.79105">
        <ele>254.60000610352</ele>
        <time>2019-06-04T15:53:31.000Z</time>
      </trkpt>
      <trkpt lat="45.80725" lon="5.79128">
        <ele>253.80000305176</ele>
        <time>2019-06-04T15:53:51.000Z</time>
      </trkpt>
      <trkpt lat="45.80724" lon="5.79133">
        <ele>253.60000610352</ele>
        <time>2019-06-04T15:53:56.000Z</time>
      </trkpt>
      <trkpt lat="45.80695" lon="5.79123">
        <ele>253.60000610352</ele>
        <time>2019-06-04T15:55:31.000Z</time>
      </trkpt>
      <trkpt lat="45.80714" lon="5.79119">
        <ele>253.60000610352</ele>
        <time>2019-06-04T15:56:04.000Z</time>
      </trkpt>
      <trkpt lat="45.80735" lon="5.79113">
        <ele>254</ele>
        <time>2019-06-04T15:56:50.000Z</time>
      </trkpt>
      <trkpt lat="45.80736" lon="5.79111">
        <ele>254.60000610352</ele>
        <time>2019-06-04T15:56:57.000Z</time>
      </trkpt>
      <trkpt lat="45.80736" lon="5.79108">
        <ele>254.19999694824</ele>
        <time>2019-06-04T15:57:02.000Z</time>
      </trkpt>
      <trkpt lat="45.80737" lon="5.79105">
        <ele>254.19999694824</ele>
        <time>2019-06-04T15:57:05.000Z</time>
      </trkpt>
      <trkpt lat="45.80739" lon="5.79102">
        <ele>254.19999694824</ele>
        <time>2019-06-04T15:57:07.000Z</time>
      </trkpt>
      <trkpt lat="45.8074" lon="5.791">
        <ele>254.19999694824</ele>
        <time>2019-06-04T15:57:10.000Z</time>
      </trkpt>
      <trkpt lat="45.8074" lon="5.791">
        <ele>254.19999694824</ele>
        <time>2019-06-04T15:57:12.000Z</time>
      </trkpt>
      <trkpt lat="45.8074" lon="5.791">
        <ele>254.19999694824</ele>
        <time>2019-06-04T15:57:22.000Z</time>
      </trkpt>
      <trkpt lat="45.80738" lon="5.79098">
        <ele>254.39999389648</ele>
        <time>2019-06-04T15:57:52.000Z</time>
      </trkpt>
      <trkpt lat="45.8074" lon="5.79098">
        <ele>254.39999389648</ele>
        <time>2019-06-04T15:58:25.000Z</time>
      </trkpt>
      <trkpt lat="45.80741" lon="5.79097">
        <ele>254.39999389648</ele>
        <time>2019-06-04T15:58:33.000Z</time>
      </trkpt>
      <trkpt lat="45.80741" lon="5.79098">
        <ele>254.39999389648</ele>
        <time>2019-06-04T15:58:43.000Z</time>
      </trkpt>
      <trkpt lat="45.80739" lon="5.791">
        <ele>254.39999389648</ele>
        <time>2019-06-04T15:58:59.000Z</time>
      </trkpt>
      <trkpt lat="45.80739" lon="5.791">
        <ele>254.39999389648</ele>
        <time>2019-06-04T15:59:00.000Z</time>
      </trkpt>
      <trkpt lat="45.80739" lon="5.791">
        <ele>254.39999389648</ele>
        <time>2019-06-04T15:59:01.000Z</time>
      </trkpt>
      <trkpt lat="45.80737" lon="5.79099">
        <ele>254.39999389648</ele>
        <time>2019-06-04T15:59:23.000Z</time>
      </trkpt>
      <trkpt lat="45.80733" lon="5.79099">
        <ele>254.39999389648</ele>
        <time>2019-06-04T15:59:40.000Z</time>
      </trkpt>
      <trkpt lat="45.80735" lon="5.79098">
        <ele>254.39999389648</ele>
        <time>2019-06-04T15:59:54.000Z</time>
      </trkpt>
      <trkpt lat="45.80733" lon="5.79096">
        <ele>254.39999389648</ele>
        <time>2019-06-04T16:00:16.000Z</time>
      </trkpt>
      <trkpt lat="45.80731" lon="5.79094">
        <ele>254.39999389648</ele>
        <time>2019-06-04T16:01:35.000Z</time>
      </trkpt>
      <trkpt lat="45.80734" lon="5.79093">
        <ele>254.39999389648</ele>
        <time>2019-06-04T16:01:44.000Z</time>
      </trkpt>
      <trkpt lat="45.80734" lon="5.79093">
        <ele>254.39999389648</ele>
        <time>2019-06-04T16:01:46.000Z</time>
      </trkpt>
      <trkpt lat="45.80745" lon="5.79094">
        <ele>254.39999389648</ele>
        <time>2019-06-04T16:01:58.000Z</time>
      </trkpt>
      <trkpt lat="45.80746" lon="5.79093">
        <ele>254.39999389648</ele>
        <time>2019-06-04T16:02:00.000Z</time>
      </trkpt>
      <trkpt lat="45.80747" lon="5.79093">
        <ele>254.39999389648</ele>
        <time>2019-06-04T16:02:01.000Z</time>
      </trkpt>
      <trkpt lat="45.80748" lon="5.79093">
        <ele>254.39999389648</ele>
        <time>2019-06-04T16:02:02.000Z</time>
      </trkpt>
      <trkpt lat="45.80755" lon="5.79094">
        <ele>254.39999389648</ele>
        <time>2019-06-04T16:02:11.000Z</time>
      </trkpt>
      <trkpt lat="45.80756" lon="5.79096">
        <ele>254.39999389648</ele>
        <time>2019-06-04T16:02:14.000Z</time>
      </trkpt>
      <trkpt lat="45.80763" lon="5.79096">
        <ele>254.39999389648</ele>
        <time>2019-06-04T16:02:23.000Z</time>
      </trkpt>
      <trkpt lat="45.80767" lon="5.79093">
        <ele>248</ele>
        <time>2019-06-04T16:02:31.000Z</time>
      </trkpt>
      <trkpt lat="45.80769" lon="5.79093">
        <ele>246.80000305176</ele>
        <time>2019-06-04T16:02:35.000Z</time>
      </trkpt>
      <trkpt lat="45.80769" lon="5.79093">
        <ele>247.60000610352</ele>
        <time>2019-06-04T16:02:36.000Z</time>
      </trkpt>
      <trkpt lat="45.80769" lon="5.79093">
        <ele>247.60000610352</ele>
        <time>2019-06-04T16:02:37.000Z</time>
      </trkpt>
      <trkpt lat="45.8077" lon="5.79092">
        <ele>247.19999694824</ele>
        <time>2019-06-04T16:02:39.000Z</time>
      </trkpt>
      <trkpt lat="45.80773" lon="5.79093">
        <ele>245.80000305176</ele>
        <time>2019-06-04T16:02:44.000Z</time>
      </trkpt>
      <trkpt lat="45.8078" lon="5.79092">
        <ele>246</ele>
        <time>2019-06-04T16:02:55.000Z</time>
      </trkpt>
      <trkpt lat="45.80784" lon="5.79093">
        <ele>245.19999694824</ele>
        <time>2019-06-04T16:02:58.000Z</time>
      </trkpt>
      <trkpt lat="45.80787" lon="5.79096">
        <ele>244.60000610352</ele>
        <time>2019-06-04T16:03:01.000Z</time>
      </trkpt>
      <trkpt lat="45.80793" lon="5.79104">
        <ele>243.39999389648</ele>
        <time>2019-06-04T16:03:08.000Z</time>
      </trkpt>
      <trkpt lat="45.80796" lon="5.79106">
        <ele>242.19999694824</ele>
        <time>2019-06-04T16:03:13.000Z</time>
      </trkpt>
      <trkpt lat="45.808" lon="5.7911">
        <ele>241.19999694824</ele>
        <time>2019-06-04T16:03:20.000Z</time>
      </trkpt>
      <trkpt lat="45.8081" lon="5.79116">
        <ele>240.19999694824</ele>
        <time>2019-06-04T16:03:30.000Z</time>
      </trkpt>
      <trkpt lat="45.80812" lon="5.79117">
        <ele>240</ele>
        <time>2019-06-04T16:03:31.000Z</time>
      </trkpt>
      <trkpt lat="45.8082" lon="5.79126">
        <ele>239</ele>
        <time>2019-06-04T16:03:43.000Z</time>
      </trkpt>
      <trkpt lat="45.80825" lon="5.79132">
        <ele>238</ele>
        <time>2019-06-04T16:03:50.000Z</time>
      </trkpt>
      <trkpt lat="45.80834" lon="5.79136">
        <ele>237</ele>
        <time>2019-06-04T16:03:58.000Z</time>
      </trkpt>
      <trkpt lat="45.80838" lon="5.7913">
        <ele>236.39999389648</ele>
        <time>2019-06-04T16:04:05.000Z</time>
      </trkpt>
      <trkpt lat="45.8084" lon="5.79123">
        <ele>236</ele>
        <time>2019-06-04T16:04:11.000Z</time>
      </trkpt>
      <trkpt lat="45.80841" lon="5.79121">
        <ele>235.80000305176</ele>
        <time>2019-06-04T16:04:12.000Z</time>
      </trkpt>
      <trkpt lat="45.80847" lon="5.79113">
        <ele>235</ele>
        <time>2019-06-04T16:04:22.000Z</time>
      </trkpt>
      <trkpt lat="45.80848" lon="5.79112">
        <ele>235</ele>
        <time>2019-06-04T16:04:23.000Z</time>
      </trkpt>
      <trkpt lat="45.80851" lon="5.7911">
        <ele>235</ele>
        <time>2019-06-04T16:04:26.000Z</time>
      </trkpt>
      <trkpt lat="45.80854" lon="5.79105">
        <ele>234.80000305176</ele>
        <time>2019-06-04T16:04:32.000Z</time>
      </trkpt>
      <trkpt lat="45.80859" lon="5.79104">
        <ele>234</ele>
        <time>2019-06-04T16:04:41.000Z</time>
      </trkpt>
      <trkpt lat="45.80868" lon="5.79105">
        <ele>233.80000305176</ele>
        <time>2019-06-04T16:04:53.000Z</time>
      </trkpt>
      <trkpt lat="45.80883" lon="5.79113">
        <ele>233.80000305176</ele>
        <time>2019-06-04T16:05:11.000Z</time>
      </trkpt>
      <trkpt lat="45.80883" lon="5.79113">
        <ele>233.80000305176</ele>
        <time>2019-06-04T16:05:12.000Z</time>
      </trkpt>
      <trkpt lat="45.80883" lon="5.79113">
        <ele>234</ele>
        <time>2019-06-04T16:05:13.000Z</time>
      </trkpt>
      <trkpt lat="45.80883" lon="5.79113">
        <ele>233.80000305176</ele>
        <time>2019-06-04T16:05:19.000Z</time>
      </trkpt>
      <trkpt lat="45.80883" lon="5.79113">
        <ele>233.80000305176</ele>
        <time>2019-06-04T16:05:20.000Z</time>
      </trkpt>
      <trkpt lat="45.80883" lon="5.79113">
        <ele>233.60000610352</ele>
        <time>2019-06-04T16:05:22.000Z</time>
      </trkpt>
      <trkpt lat="45.80883" lon="5.79112">
        <ele>233.60000610352</ele>
        <time>2019-06-04T16:05:23.000Z</time>
      </trkpt>
      <trkpt lat="45.80882" lon="5.79112">
        <ele>233.60000610352</ele>
        <time>2019-06-04T16:05:24.000Z</time>
      </trkpt>
      <trkpt lat="45.80875" lon="5.79113">
        <ele>233.80000305176</ele>
        <time>2019-06-04T16:05:42.000Z</time>
      </trkpt>
      <trkpt lat="45.80871" lon="5.79109">
        <ele>234.19999694824</ele>
        <time>2019-06-04T16:05:47.000Z</time>
      </trkpt>
      <trkpt lat="45.80867" lon="5.79103">
        <ele>234</ele>
        <time>2019-06-04T16:06:03.000Z</time>
      </trkpt>
      <trkpt lat="45.80865" lon="5.79107">
        <ele>233.39999389648</ele>
        <time>2019-06-04T16:06:11.000Z</time>
      </trkpt>
      <trkpt lat="45.8086" lon="5.79115">
        <ele>234</ele>
        <time>2019-06-04T16:06:24.000Z</time>
      </trkpt>
      <trkpt lat="45.8086" lon="5.79115">
        <ele>234</ele>
        <time>2019-06-04T16:06:32.000Z</time>
      </trkpt>
    </trkseg>
  </trk>
</gpx>